Observation data for Lomax on 01/19/2019      Previous  Date  Next       Current Mesonet Observations  Soil Data  Daily Summary Page  Observations in Plain Language
KLO1 190600Z 35018G24KT 07/M01 A3007 RMK A01 T00681011  RH  057%=      5-min Rain = 0
KLO1 190601Z 35019G28KT 07/M01 A3007 RMK A01 T00681011  RH  057%=      5-min Rain = 0
KLO1 190602Z 35019G26KT 07/M01 A3007 RMK A01 T00681011  RH  057%=      5-min Rain = 0
KLO1 190603Z 35020KT 07/M01 A3007 RMK A01 T00671011  RH  057%=      5-min Rain = 0
KLO1 190604Z 35018G23KT 07/M01 A3007 RMK A01 T00671010  RH  058%=      5-min Rain = 0
KLO1 190605Z 35020G27KT 07/M01 A3007 RMK A01 T00671010  RH  058%=      5-min Rain = 0
KLO1 190606Z 34020G25KT 07/M01 A3008 RMK A01 T00671009  RH  058%=      5-min Rain = 0
KLO1 190607Z 35021G26KT 07/M01 A3007 RMK A01 T00671009  RH  058%=      5-min Rain = 0
KLO1 190608Z 34025G30KT 07/M01 A3007 RMK A01 T00681008  RH  059%=      5-min Rain = 0
KLO1 190609Z 34025KT 07/M01 A3008 RMK A01 T00671007  RH  059%=      5-min Rain = 0
KLO1 190610Z 34027G32KT 07/M01 A3008 RMK A01 T00671007  RH  059%=      5-min Rain = 0
KLO1 190611Z 34023G31KT 07/M01 A3008 RMK A01 T00681006  RH  059%=      5-min Rain = 0
KLO1 190612Z 34026KT 07/M01 A3008 RMK A01 T00671006  RH  059%=      5-min Rain = 0
KLO1 190613Z 34025G31KT 07/M01 A3008 RMK A01 T00671006  RH  059%=      5-min Rain = 0
KLO1 190614Z 33023G28KT 07/M01 A3008 RMK A01 T00671006  RH  059%=      5-min Rain = 0
KLO1 190615Z 34022G27KT 07/M01 A3008 RMK A01 T00671006  RH  060%=      5-min Rain = 0
KLO1 190616Z 33025G30KT 07/M01 A3008 RMK A01 T00671005  RH  060%=      5-min Rain = 0
KLO1 190617Z 33024KT 07/M01 A3008 RMK A01 T00671005  RH  060%=      5-min Rain = 0
KLO1 190618Z 33023KT 07/M01 A3008 RMK A01 T00671005  RH  060%=      5-min Rain = 0
KLO1 190619Z 34020KT 07/M01 A3008 RMK A01 T00661005  RH  060%=      5-min Rain = 0
KLO1 190620Z 33021G27KT 07/M00 A3009 RMK A01 T00661004  RH  061%=      5-min Rain = 0
KLO1 190621Z 33019KT 07/M00 A3009 RMK A01 T00661004  RH  061%=      5-min Rain = 0
KLO1 190622Z 33025KT 07/M00 A3009 RMK A01 T00661003  RH  061%=      5-min Rain = 0
KLO1 190623Z 33023KT 07/M00 A3009 RMK A01 T00661003  RH  062%=      5-min Rain = 0
KLO1 190624Z 33019KT 07/M00 A3009 RMK A01 T00651002  RH  062%=      5-min Rain = 0
KLO1 190625Z 33018KT 07/M00 A3009 RMK A01 T00651002  RH  062%=      5-min Rain = 0
KLO1 190626Z 33017KT 07/M00 A3009 RMK A01 T00651002  RH  062%=      5-min Rain = 0
KLO1 190627Z 34019KT 07/M00 A3009 RMK A01 T00651002  RH  062%=      5-min Rain = 0
KLO1 190628Z 33019KT 07/M00 A3009 RMK A01 T00651001  RH  062%=      5-min Rain = 0
KLO1 190629Z 33018KT 07/M00 A3009 RMK A01 T00651001  RH  063%=      5-min Rain = 0
KLO1 190630Z 33016KT 07/M00 A3009 RMK A01 T00651001  RH  063%=      5-min Rain = 0
KLO1 190631Z 33019KT 07/00 A3009 RMK A01 T006500-0  RH  063%=      5-min Rain = 0
KLO1 190632Z 33020KT 07/M00 A3009 RMK A01 T00651001  RH  063%=      5-min Rain = 0
KLO1 190633Z 33018KT 06/M00 A301 RMK A01 T00641002  RH  063%=      5-min Rain = 0
KLO1 190634Z 33021KT 06/M00 A3009 RMK A01 T00641002  RH  063%=      5-min Rain = 0
KLO1 190635Z 33022KT 06/M00 A301 RMK A01 T00641002  RH  063%=      5-min Rain = 0
KLO1 190636Z 33019KT 06/M00 A301 RMK A01 T00631002  RH  063%=      5-min Rain = 0
KLO1 190637Z 33019KT 06/M00 A301 RMK A01 T00631002  RH  063%=      5-min Rain = 0
KLO1 190638Z 34017KT 06/M00 A301 RMK A01 T00631003  RH  063%=      5-min Rain = 0
KLO1 190639Z 34018G23KT 06/M00 A301 RMK A01 T00631003  RH  062%=      5-min Rain = 0
KLO1 190640Z 33016G21KT 06/M00 A301 RMK A01 T00631004  RH  062%=      5-min Rain = 0
KLO1 190641Z 34016KT 06/M01 A301 RMK A01 T00631005  RH  062%=      5-min Rain = 0
KLO1 190642Z 34019KT 06/M01 A3011 RMK A01 T00631006  RH  061%=      5-min Rain = 0
KLO1 190643Z 33018G23KT 06/M01 A3011 RMK A01 T00621010  RH  060%=      5-min Rain = 0
KLO1 190644Z 33019G24KT 06/M01 A3011 RMK A01 T00611013  RH  059%=      5-min Rain = 0
KLO1 190645Z 34018KT 06/M02 A3011 RMK A01 T00601015  RH  059%=      5-min Rain = 0
KLO1 190646Z 33017KT 06/M02 A3011 RMK A01 T00591016  RH  059%=      5-min Rain = 0
KLO1 190647Z 34017KT 06/M02 A3011 RMK A01 T00591016  RH  059%=      5-min Rain = 0
KLO1 190648Z 33018KT 06/M02 A3011 RMK A01 T00591016  RH  059%=      5-min Rain = 0
KLO1 190649Z 33019KT 06/M02 A3011 RMK A01 T00581017  RH  058%=      5-min Rain = 0
KLO1 190650Z 33019KT 06/M02 A3011 RMK A01 T00571018  RH  058%=      5-min Rain = 0
KLO1 190651Z 33018KT 06/M02 A3011 RMK A01 T00571019  RH  058%=      5-min Rain = 0
KLO1 190652Z 33016KT 06/M02 A3011 RMK A01 T00571019  RH  058%=      5-min Rain = 0
KLO1 190653Z 34016KT 06/M02 A3011 RMK A01 T00571019  RH  058%=      5-min Rain = 0
KLO1 190654Z 33018G23KT 06/M02 A3011 RMK A01 T00571020  RH  058%=      5-min Rain = 0
KLO1 190655Z 33021G26KT 06/M02 A3011 RMK A01 T00561020  RH  058%=      5-min Rain = 0
KLO1 190656Z 33021KT 06/M02 A3011 RMK A01 T00561021  RH  058%=      5-min Rain = 0
KLO1 190657Z 33019G24KT 06/M02 A3012 RMK A01 T00561021  RH  058%=      5-min Rain = 0
KLO1 190658Z 33019KT 06/M02 A3012 RMK A01 T00551021  RH  058%=      5-min Rain = 0
KLO1 190659Z 33018KT 06/M02 A3012 RMK A01 T00551022  RH  058%=      5-min Rain = 0
KLO1 190700Z 33020KT 06/M02 A3012 RMK A01 T00551022  RH  058%=      5-min Rain = 0
KLO1 190701Z 34016KT 06/M02 A3012 RMK A01 T00551022  RH  058%=      5-min Rain = 0
KLO1 190702Z 34014KT 05/M02 A3012 RMK A01 T00541022  RH  058%=      5-min Rain = 0
KLO1 190703Z 33016KT 05/M02 A3012 RMK A01 T00541022  RH  058%=      5-min Rain = 0
KLO1 190704Z 34014KT 05/M02 A3012 RMK A01 T00531022  RH  058%=      5-min Rain = 0
KLO1 190705Z 34016KT 05/M02 A3012 RMK A01 T00531022  RH  058%=      5-min Rain = 0
KLO1 190706Z 34018KT 05/M02 A3012 RMK A01 T00531022  RH  058%=      5-min Rain = 0
KLO1 190707Z 34018G24KT 05/M02 A3012 RMK A01 T00531022  RH  058%=      5-min Rain = 0
KLO1 190708Z 33017KT 05/M02 A3012 RMK A01 T00531022  RH  058%=      5-min Rain = 0
KLO1 190709Z 33020KT 05/M02 A3012 RMK A01 T00531022  RH  058%=      5-min Rain = 0
KLO1 190710Z 33020KT 05/M02 A3012 RMK A01 T00531022  RH  059%=      5-min Rain = 0
KLO1 190711Z 33020KT 05/M02 A3012 RMK A01 T00521021  RH  059%=      5-min Rain = 0
KLO1 190712Z 33020KT 05/M02 A3012 RMK A01 T00521020  RH  059%=      5-min Rain = 0
KLO1 190713Z 33018G24KT 05/M02 A3012 RMK A01 T00521020  RH  060%=      5-min Rain = 0
KLO1 190714Z 33017G22KT 05/M02 A3012 RMK A01 T00521019  RH  060%=      5-min Rain = 0
KLO1 190715Z 34019KT 05/M02 A3012 RMK A01 T00511018  RH  061%=      5-min Rain = 0
KLO1 190716Z 33018KT 05/M02 A3012 RMK A01 T00511018  RH  061%=      5-min Rain = 0
KLO1 190717Z 34020KT 05/M02 A3012 RMK A01 T00511018  RH  061%=      5-min Rain = 0
KLO1 190718Z 34018G23KT 05/M02 A3012 RMK A01 T00511017  RH  061%=      5-min Rain = 0
KLO1 190719Z 33019G25KT 05/M02 A3012 RMK A01 T00511017  RH  062%=      5-min Rain = 0
KLO1 190720Z 34018KT 05/M02 A3012 RMK A01 T00511016  RH  062%=      5-min Rain = 0
KLO1 190721Z 34022KT 05/M02 A3012 RMK A01 T00501016  RH  062%=      5-min Rain = 0
KLO1 190722Z 34017KT 05/M02 A3012 RMK A01 T00511016  RH  062%=      5-min Rain = 0
KLO1 190723Z 33017KT 05/M02 A3012 RMK A01 T00501016  RH  062%=      5-min Rain = 0
KLO1 190724Z 34016KT 05/M02 A3012 RMK A01 T00501016  RH  063%=      5-min Rain = 0
KLO1 190725Z 33020KT 05/M02 A3012 RMK A01 T00501015  RH  063%=      5-min Rain = 0
KLO1 190726Z 34020G26KT 05/M02 A3012 RMK A01 T00501015  RH  063%=      5-min Rain = 0
KLO1 190727Z 34019G25KT 05/M01 A3012 RMK A01 T00501014  RH  063%=      5-min Rain = 0
KLO1 190728Z 34017KT 05/M01 A3013 RMK A01 T00501014  RH  063%=      5-min Rain = 0
KLO1 190729Z 35020KT 05/M01 A3013 RMK A01 T00501014  RH  063%=      5-min Rain = 0
KLO1 190730Z 34021KT 05/M01 A3013 RMK A01 T00501014  RH  063%=      5-min Rain = 0
KLO1 190731Z 34023KT 05/M01 A3013 RMK A01 T00501014  RH  063%=      5-min Rain = 0
KLO1 190732Z 34019KT 05/M01 A3013 RMK A01 T00501013  RH  064%=      5-min Rain = 0
KLO1 190733Z 34019KT 05/M01 A3013 RMK A01 T00501013  RH  064%=      5-min Rain = 0
KLO1 190734Z 34024KT 05/M01 A3013 RMK A01 T00501013  RH  064%=      5-min Rain = 0
KLO1 190735Z 34021G27KT 05/M01 A3013 RMK A01 T00501013  RH  064%=      5-min Rain = 0
KLO1 190736Z 34022KT 05/M01 A3013 RMK A01 T00501013  RH  064%=      5-min Rain = 0
KLO1 190737Z 34022G28KT 05/M01 A3013 RMK A01 T00501013  RH  064%=      5-min Rain = 0
KLO1 190738Z 34023KT 05/M01 A3013 RMK A01 T00501012  RH  064%=      5-min Rain = 0
KLO1 190739Z 34022KT 05/M01 A3013 RMK A01 T00501012  RH  064%=      5-min Rain = 0
KLO1 190740Z 34021KT 05/M01 A3013 RMK A01 T00501012  RH  064%=      5-min Rain = 0
KLO1 190741Z 33020G26KT 05/M01 A3013 RMK A01 T00501011  RH  065%=      5-min Rain = 0
KLO1 190742Z 33021G28KT 05/M01 A3013 RMK A01 T00501011  RH  065%=      5-min Rain = 0
KLO1 190743Z 33019G24KT 05/M01 A3013 RMK A01 T00501011  RH  065%=      5-min Rain = 0
KLO1 190744Z 34019KT 05/M01 A3013 RMK A01 T00501011  RH  065%=      5-min Rain = 0
KLO1 190745Z 34018KT 05/M01 A3013 RMK A01 T00501011  RH  065%=      5-min Rain = 0
KLO1 190746Z 34019KT 05/M01 A3013 RMK A01 T00501010  RH  065%=      5-min Rain = 0
KLO1 190747Z 34021G27KT 05/M01 A3013 RMK A01 T00501010  RH  065%=      5-min Rain = 0
KLO1 190748Z 34023KT 05/M01 A3013 RMK A01 T00491010  RH  065%=      5-min Rain = 0
KLO1 190749Z 34019KT 05/M01 A3014 RMK A01 T00501010  RH  065%=      5-min Rain = 0
KLO1 190750Z 33022KT 05/M01 A3014 RMK A01 T00501010  RH  065%=      5-min Rain = 0
KLO1 190751Z 33021KT 05/M01 A3014 RMK A01 T00501009  RH  066%=      5-min Rain = 0
KLO1 190752Z 33020KT 05/M01 A3014 RMK A01 T00491010  RH  066%=      5-min Rain = 0
KLO1 190753Z 34018G23KT 05/M01 A3014 RMK A01 T00501009  RH  066%=      5-min Rain = 0
KLO1 190754Z 33019KT 05/M01 A3014 RMK A01 T00501009  RH  066%=      5-min Rain = 0
KLO1 190755Z 34019KT 05/M01 A3014 RMK A01 T00491009  RH  066%=      5-min Rain = 0
KLO1 190756Z 34019G25KT 05/M01 A3014 RMK A01 T00501008  RH  066%=      5-min Rain = 0
KLO1 190757Z 33021G27KT 05/M01 A3014 RMK A01 T00491009  RH  066%=      5-min Rain = 0
KLO1 190758Z 34021KT 05/M01 A3014 RMK A01 T00491009  RH  066%=      5-min Rain = 0
KLO1 190759Z 34018KT 05/M01 A3014 RMK A01 T00491008  RH  066%=      5-min Rain = 0
KLO1 190800Z 34021KT 05/M01 A3014 RMK A01 T00491008  RH  067%=      5-min Rain = 0
KLO1 190801Z 34021KT 05/M01 A3014 RMK A01 T00491008  RH  067%=      5-min Rain = 0
KLO1 190802Z 34021KT 05/M01 A3014 RMK A01 T00491008  RH  067%=      5-min Rain = 0
KLO1 190803Z 33020KT 05/M01 A3014 RMK A01 T00491008  RH  067%=      5-min Rain = 0
KLO1 190804Z 34022KT 05/M01 A3014 RMK A01 T00491008  RH  067%=      5-min Rain = 0
KLO1 190805Z 34021KT 05/M01 A3014 RMK A01 T00491008  RH  067%=      5-min Rain = 0
KLO1 190806Z 34019KT 05/M01 A3014 RMK A01 T00481008  RH  067%=      5-min Rain = 0
KLO1 190807Z 34017KT 05/M01 A3014 RMK A01 T00491008  RH  067%=      5-min Rain = 0
KLO1 190808Z 34017KT 05/M01 A3014 RMK A01 T00491008  RH  067%=      5-min Rain = 0
KLO1 190809Z 34020KT 05/M01 A3014 RMK A01 T00481008  RH  067%=      5-min Rain = 0
KLO1 190810Z 34017KT 05/M01 A3014 RMK A01 T00481008  RH  067%=      5-min Rain = 0
KLO1 190811Z 34016KT 05/M01 A3014 RMK A01 T00481008  RH  067%=      5-min Rain = 0
KLO1 190812Z 34017G22KT 05/M01 A3014 RMK A01 T00471008  RH  067%=      5-min Rain = 0
KLO1 190813Z 34019KT 05/M01 A3014 RMK A01 T00471008  RH  068%=      5-min Rain = 0
KLO1 190814Z 34018KT 05/M01 A3014 RMK A01 T00471008  RH  068%=      5-min Rain = 0
KLO1 190815Z 34016KT 05/M01 A3014 RMK A01 T00461008  RH  068%=      5-min Rain = 0
KLO1 190816Z 34015KT 05/M01 A3014 RMK A01 T00461008  RH  068%=      5-min Rain = 0
KLO1 190817Z 34018KT 05/M01 A3014 RMK A01 T00461007  RH  068%=      5-min Rain = 0
KLO1 190818Z 34019KT 05/M01 A3014 RMK A01 T00461007  RH  068%=      5-min Rain = 0
KLO1 190819Z 34019KT 05/M01 A3014 RMK A01 T00451008  RH  068%=      5-min Rain = 0
KLO1 190820Z 35017KT 05/M01 A3015 RMK A01 T00451007  RH  069%=      5-min Rain = 0
KLO1 190821Z 34014KT 05/M01 A3015 RMK A01 T00451007  RH  069%=      5-min Rain = 0
KLO1 190822Z 34018KT 05/M01 A3015 RMK A01 T00451007  RH  069%=      5-min Rain = 0
KLO1 190823Z 34016KT 05/M01 A3015 RMK A01 T00461006  RH  069%=      5-min Rain = 0
KLO1 190824Z 34019KT 05/M01 A3015 RMK A01 T00451007  RH  069%=      5-min Rain = 0
KLO1 190825Z 34016KT 05/M01 A3015 RMK A01 T00461006  RH  069%=      5-min Rain = 0
KLO1 190826Z 34017KT 05/M01 A3015 RMK A01 T00451006  RH  069%=      5-min Rain = 0
KLO1 190827Z 34014KT 05/M01 A3015 RMK A01 T00451006  RH  069%=      5-min Rain = 0
KLO1 190828Z 34014KT 05/M01 A3015 RMK A01 T00451006  RH  069%=      5-min Rain = 0
KLO1 190829Z 34013KT 05/M01 A3015 RMK A01 T00451006  RH  069%=      5-min Rain = 0
KLO1 190830Z 35014KT 05/M01 A3015 RMK A01 T00451006  RH  069%=      5-min Rain = 0
KLO1 190831Z 34014KT 05/M01 A3015 RMK A01 T00451006  RH  069%=      5-min Rain = 0
KLO1 190832Z 34013KT 05/M01 A3015 RMK A01 T00451006  RH  070%=      5-min Rain = 0
KLO1 190833Z 34013KT 04/M01 A3015 RMK A01 T00441006  RH  070%=      5-min Rain = 0
KLO1 190834Z 34014KT 05/M01 A3015 RMK A01 T00451006  RH  070%=      5-min Rain = 0
KLO1 190835Z 35012KT 04/M01 A3015 RMK A01 T00441006  RH  070%=      5-min Rain = 0
KLO1 190836Z 34011KT 04/M01 A3015 RMK A01 T00441006  RH  070%=      5-min Rain = 0
KLO1 190837Z 34012KT 04/M01 A3015 RMK A01 T00431006  RH  070%=      5-min Rain = 0
KLO1 190838Z 34011KT 04/M01 A3015 RMK A01 T00431006  RH  070%=      5-min Rain = 0
KLO1 190839Z 34011KT 04/M01 A3015 RMK A01 T00431006  RH  070%=      5-min Rain = 0
KLO1 190840Z 34013KT 04/M01 A3015 RMK A01 T00431006  RH  070%=      5-min Rain = 0
KLO1 190841Z 34014KT 04/M01 A3015 RMK A01 T00431006  RH  071%=      5-min Rain = 0
KLO1 190842Z 34014KT 04/M01 A3015 RMK A01 T00431006  RH  071%=      5-min Rain = 0
KLO1 190843Z 33012KT 04/M01 A3015 RMK A01 T00431006  RH  071%=      5-min Rain = 0
KLO1 190844Z 33013KT 04/M01 A3015 RMK A01 T00421006  RH  071%=      5-min Rain = 0
KLO1 190845Z 33013KT 04/M01 A3015 RMK A01 T00421006  RH  071%=      5-min Rain = 0
KLO1 190846Z 33011KT 04/M01 A3015 RMK A01 T00421006  RH  071%=      5-min Rain = 0
KLO1 190847Z 33011KT 04/M01 A3015 RMK A01 T00421006  RH  071%=      5-min Rain = 0
KLO1 190848Z 33011KT 04/M01 A3015 RMK A01 T00421006  RH  071%=      5-min Rain = 0
KLO1 190849Z 33010KT 04/M01 A3016 RMK A01 T00421006  RH  071%=      5-min Rain = 0
KLO1 190850Z 33012KT 04/M01 A3015 RMK A01 T00421007  RH  071%=      5-min Rain = 0
KLO1 190851Z 33012KT 04/M01 A3016 RMK A01 T00431006  RH  070%=      5-min Rain = 0
KLO1 190852Z 33010KT 04/M01 A3016 RMK A01 T00431006  RH  070%=      5-min Rain = 0
KLO1 190853Z 33011KT 04/M01 A3016 RMK A01 T00431006  RH  070%=      5-min Rain = 0
KLO1 190854Z 33009KT 04/M01 A3016 RMK A01 T00441006  RH  070%=      5-min Rain = 0
KLO1 190855Z 33012G17KT 04/M01 A3016 RMK A01 T00431006  RH  070%=      5-min Rain = 0
KLO1 190856Z 33012KT 04/M01 A3016 RMK A01 T00441006  RH  070%=      5-min Rain = 0
KLO1 190857Z 33014KT 05/M01 A3016 RMK A01 T00451006  RH  070%=      5-min Rain = 0
KLO1 190858Z 32014KT 05/M01 A3016 RMK A01 T00461006  RH  069%=      5-min Rain = 0
KLO1 190859Z 33014KT 05/M01 A3016 RMK A01 T00461006  RH  069%=      5-min Rain = 0
KLO1 190900Z 33016KT 05/M01 A3016 RMK A01 T00461007  RH  068%=      5-min Rain = 0
KLO1 190901Z 33018KT 05/M01 A3016 RMK A01 T00471008  RH  067%=      5-min Rain = 0
KLO1 190902Z 32020KT 05/M01 A3016 RMK A01 T00471011  RH  066%=      5-min Rain = 0
KLO1 190903Z 33023KT 05/M01 A3016 RMK A01 T00471013  RH  065%=      5-min Rain = 0
KLO1 190904Z 33025G30KT 05/M02 A3016 RMK A01 T00471015  RH  064%=      5-min Rain = 0
KLO1 190905Z 33023KT 05/M02 A3016 RMK A01 T00471016  RH  064%=      5-min Rain = 0
KLO1 190906Z 33023G28KT 05/M02 A3016 RMK A01 T00471017  RH  063%=      5-min Rain = 0
KLO1 190907Z 33024KT 05/M02 A3016 RMK A01 T00471017  RH  063%=      5-min Rain = 0
KLO1 190908Z 33021KT 05/M02 A3016 RMK A01 T00461018  RH  063%=      5-min Rain = 0
KLO1 190909Z 33023KT 05/M02 A3016 RMK A01 T00461018  RH  063%=      5-min Rain = 0
KLO1 190910Z 33024G30KT 05/M02 A3016 RMK A01 T00461018  RH  063%=      5-min Rain = 0
KLO1 190911Z 33019G25KT 05/M02 A3016 RMK A01 T00451019  RH  063%=      5-min Rain = 0
KLO1 190912Z 33017KT 05/M02 A3016 RMK A01 T00451019  RH  063%=      5-min Rain = 0
KLO1 190913Z 33022G28KT 05/M02 A3017 RMK A01 T00451019  RH  063%=      5-min Rain = 0
KLO1 190914Z 33024KT 05/M02 A3016 RMK A01 T00451020  RH  063%=      5-min Rain = 0
KLO1 190915Z 33022G28KT 05/M02 A3016 RMK A01 T00451021  RH  062%=      5-min Rain = 0
KLO1 190916Z 32022KT 05/M02 A3016 RMK A01 T00451021  RH  062%=      5-min Rain = 0
KLO1 190917Z 33024KT 04/M02 A3016 RMK A01 T00441022  RH  062%=      5-min Rain = 0
KLO1 190918Z 33023G29KT 04/M02 A3016 RMK A01 T00441023  RH  062%=      5-min Rain = 0
KLO1 190919Z 33024KT 04/M02 A3016 RMK A01 T00441023  RH  062%=      5-min Rain = 0
KLO1 190920Z 33024KT 04/M02 A3016 RMK A01 T00431024  RH  061%=      5-min Rain = 0
KLO1 190921Z 33023KT 04/M03 A3016 RMK A01 T00431025  RH  061%=      5-min Rain = 0
KLO1 190922Z 33022G29KT 04/M03 A3016 RMK A01 T00431025  RH  061%=      5-min Rain = 0
KLO1 190923Z 34023G28KT 04/M03 A3016 RMK A01 T00421026  RH  061%=      5-min Rain = 0
KLO1 190924Z 34025G30KT 04/M03 A3016 RMK A01 T00421026  RH  061%=      5-min Rain = 0
KLO1 190925Z 33021G27KT 04/M03 A3016 RMK A01 T00421027  RH  061%=      5-min Rain = 0
KLO1 190926Z 34023KT 04/M03 A3016 RMK A01 T00421028  RH  061%=      5-min Rain = 0
KLO1 190927Z 34021KT 04/M03 A3017 RMK A01 T00421028  RH  060%=      5-min Rain = 0
KLO1 190928Z 34019KT 04/M03 A3017 RMK A01 T00411028  RH  061%=      5-min Rain = 0
KLO1 190929Z 33020G25KT 04/M03 A3017 RMK A01 T00411028  RH  061%=      5-min Rain = 0
KLO1 190930Z 33020KT 04/M03 A3017 RMK A01 T00411028  RH  061%=      5-min Rain = 0
KLO1 190931Z 33022KT 04/M03 A3017 RMK A01 T00401028  RH  061%=      5-min Rain = 0
KLO1 190932Z 33020KT 04/M03 A3017 RMK A01 T00401029  RH  061%=      5-min Rain = 0
KLO1 190933Z 33017KT 04/M03 A3017 RMK A01 T00401029  RH  061%=      5-min Rain = 0
KLO1 190934Z 33019KT 04/M03 A3017 RMK A01 T00391029  RH  061%=      5-min Rain = 0
KLO1 190935Z 33019KT 04/M03 A3017 RMK A01 T00391028  RH  061%=      5-min Rain = 0
KLO1 190936Z 33019KT 04/M03 A3017 RMK A01 T00391029  RH  061%=      5-min Rain = 0
KLO1 190937Z 33017KT 04/M03 A3017 RMK A01 T00391028  RH  061%=      5-min Rain = 0
KLO1 190938Z 33018KT 04/M03 A3017 RMK A01 T00401028  RH  062%=      5-min Rain = 0
KLO1 190939Z 33016KT 04/M03 A3017 RMK A01 T00391027  RH  062%=      5-min Rain = 0
KLO1 190940Z 33016KT 04/M03 A3018 RMK A01 T00391027  RH  062%=      5-min Rain = 0
KLO1 190941Z 33015KT 04/M03 A3018 RMK A01 T00381027  RH  062%=      5-min Rain = 0
KLO1 190942Z 33017KT 04/M03 A3018 RMK A01 T00381027  RH  063%=      5-min Rain = 0
KLO1 190943Z 33018KT 04/M03 A3018 RMK A01 T00381027  RH  063%=      5-min Rain = 0
KLO1 190944Z 33015KT 04/M03 A3018 RMK A01 T00381026  RH  063%=      5-min Rain = 0
KLO1 190945Z 33015KT 04/M03 A3018 RMK A01 T00381026  RH  063%=      5-min Rain = 0
KLO1 190946Z 33017KT 04/M03 A3018 RMK A01 T00381025  RH  063%=      5-min Rain = 0
KLO1 190947Z 33014KT 04/M03 A3018 RMK A01 T00371025  RH  064%=      5-min Rain = 0
KLO1 190948Z 32013KT 04/M03 A3018 RMK A01 T00381025  RH  064%=      5-min Rain = 0
KLO1 190949Z 32014KT 04/M02 A3018 RMK A01 T00371024  RH  064%=      5-min Rain = 0
KLO1 190950Z 31013KT 04/M02 A3018 RMK A01 T00361024  RH  065%=      5-min Rain = 0
KLO1 190951Z 32017KT 04/M02 A3018 RMK A01 T00361023  RH  065%=      5-min Rain = 0
KLO1 190952Z 31014KT 04/M02 A3018 RMK A01 T00361023  RH  065%=      5-min Rain = 0
KLO1 190953Z 32017KT 04/M02 A3018 RMK A01 T00361023  RH  065%=      5-min Rain = 0
KLO1 190954Z 31018G25KT 04/M02 A3018 RMK A01 T00361022  RH  065%=      5-min Rain = 0
KLO1 190955Z 32022KT 04/M02 A3018 RMK A01 T00361023  RH  065%=      5-min Rain = 0
KLO1 190956Z 32020KT 04/M02 A3018 RMK A01 T00371024  RH  065%=      5-min Rain = 0
KLO1 190957Z 32019KT 04/M02 A3018 RMK A01 T00371024  RH  064%=      5-min Rain = 0
KLO1 190958Z 33023KT 04/M03 A3018 RMK A01 T00371025  RH  064%=      5-min Rain = 0
KLO1 190959Z 33022KT 04/M03 A3018 RMK A01 T00371026  RH  063%=      5-min Rain = 0
KLO1 191000Z 33019KT 04/M03 A3018 RMK A01 T00381026  RH  063%=      5-min Rain = 0
KLO1 191001Z 33019KT 04/M03 A3018 RMK A01 T00381026  RH  063%=      5-min Rain = 0
KLO1 191002Z 33021KT 04/M03 A3018 RMK A01 T00381026  RH  063%=      5-min Rain = 0
KLO1 191003Z 33019KT 04/M03 A3018 RMK A01 T00381027  RH  063%=      5-min Rain = 0
KLO1 191004Z 33019KT 04/M03 A3018 RMK A01 T00371027  RH  063%=      5-min Rain = 0
KLO1 191005Z 33019KT 04/M03 A3018 RMK A01 T00371027  RH  063%=      5-min Rain = 0
KLO1 191006Z 33017KT 04/M03 A3018 RMK A01 T00371027  RH  063%=      5-min Rain = 0
KLO1 191007Z 33017KT 04/M03 A3018 RMK A01 T00371027  RH  063%=      5-min Rain = 0
KLO1 191008Z 33021KT 04/M03 A3018 RMK A01 T00361028  RH  063%=      5-min Rain = 0
KLO1 191009Z 34020KT 04/M03 A3018 RMK A01 T00371028  RH  063%=      5-min Rain = 0
KLO1 191010Z 34017KT 04/M03 A3018 RMK A01 T00371028  RH  063%=      5-min Rain = 0
KLO1 191011Z 33017KT 04/M03 A3018 RMK A01 T00361028  RH  063%=      5-min Rain = 0
KLO1 191012Z 33016KT 04/M03 A3018 RMK A01 T00361028  RH  063%=      5-min Rain = 0
KLO1 191013Z 33018KT 04/M03 A3018 RMK A01 T00361028  RH  063%=      5-min Rain = 0
KLO1 191014Z 33017KT 04/M03 A3018 RMK A01 T00361028  RH  063%=      5-min Rain = 0
KLO1 191015Z 33017G22KT 04/M03 A3018 RMK A01 T00351027  RH  064%=      5-min Rain = 0
KLO1 191016Z 33017KT 04/M03 A3018 RMK A01 T00351027  RH  064%=      5-min Rain = 0
KLO1 191017Z 33016KT 04/M03 A3018 RMK A01 T00351027  RH  064%=      5-min Rain = 0
KLO1 191018Z 33015KT 03/M03 A3018 RMK A01 T00341027  RH  064%=      5-min Rain = 0
KLO1 191019Z 33016KT 03/M03 A3018 RMK A01 T00341027  RH  064%=      5-min Rain = 0
KLO1 191020Z 32018KT 03/M03 A3018 RMK A01 T00331027  RH  065%=      5-min Rain = 0
KLO1 191021Z 32015KT 03/M03 A3018 RMK A01 T00331026  RH  065%=      5-min Rain = 0
KLO1 191022Z 32014KT 03/M03 A3018 RMK A01 T00331026  RH  065%=      5-min Rain = 0
KLO1 191023Z 32015KT 03/M03 A3018 RMK A01 T00321026  RH  065%=      5-min Rain = 0
KLO1 191024Z 32018G23KT 03/M03 A3018 RMK A01 T00321026  RH  066%=      5-min Rain = 0
KLO1 191025Z 32018KT 03/M03 A3018 RMK A01 T00331025  RH  066%=      5-min Rain = 0
KLO1 191026Z 32017KT 03/M03 A3019 RMK A01 T00331026  RH  066%=      5-min Rain = 0
KLO1 191027Z 32020KT 03/M03 A3019 RMK A01 T00331026  RH  065%=      5-min Rain = 0
KLO1 191028Z 31016KT 03/M03 A3019 RMK A01 T00341026  RH  065%=      5-min Rain = 0
KLO1 191029Z 32016KT 03/M03 A3019 RMK A01 T00341026  RH  065%=      5-min Rain = 0
KLO1 191030Z 32016KT 03/M03 A3019 RMK A01 T00331026  RH  065%=      5-min Rain = 0
KLO1 191031Z 32016KT 03/M03 A3019 RMK A01 T00331026  RH  065%=      5-min Rain = 0
KLO1 191032Z 32016KT 03/M03 A3019 RMK A01 T00331026  RH  065%=      5-min Rain = 0
KLO1 191033Z 32016KT 03/M03 A3019 RMK A01 T00331027  RH  065%=      5-min Rain = 0
KLO1 191034Z 31014KT 03/M03 A3019 RMK A01 T00321027  RH  065%=      5-min Rain = 0
KLO1 191035Z 32014KT 03/M03 A302 RMK A01 T00321026  RH  065%=      5-min Rain = 0
KLO1 191036Z 32015KT 03/M03 A302 RMK A01 T00321026  RH  066%=      5-min Rain = 0
KLO1 191037Z 32014KT 03/M03 A302 RMK A01 T00321026  RH  066%=      5-min Rain = 0
KLO1 191038Z 32016KT 03/M03 A302 RMK A01 T00321027  RH  065%=      5-min Rain = 0
KLO1 191039Z 32015KT 03/M03 A302 RMK A01 T00321027  RH  065%=      5-min Rain = 0
KLO1 191040Z 31016KT 03/M03 A302 RMK A01 T00321027  RH  065%=      5-min Rain = 0
KLO1 191041Z 32017KT 03/M03 A302 RMK A01 T00321027  RH  065%=      5-min Rain = 0
KLO1 191042Z 32014KT 03/M03 A302 RMK A01 T00321028  RH  065%=      5-min Rain = 0
KLO1 191043Z 32014KT 03/M03 A302 RMK A01 T00321028  RH  065%=      5-min Rain = 0
KLO1 191044Z 32015KT 03/M03 A302 RMK A01 T00321028  RH  065%=      5-min Rain = 0
KLO1 191045Z 31014KT 03/M03 A302 RMK A01 T00311028  RH  065%=      5-min Rain = 0
KLO1 191046Z 32018KT 03/M03 A302 RMK A01 T00311028  RH  065%=      5-min Rain = 0
KLO1 191047Z 31016G21KT 03/M03 A302 RMK A01 T00311028  RH  065%=      5-min Rain = 0
KLO1 191048Z 32016G21KT 03/M03 A302 RMK A01 T00311028  RH  065%=      5-min Rain = 0
KLO1 191049Z 32014KT 03/M03 A302 RMK A01 T00311028  RH  065%=      5-min Rain = 0
KLO1 191050Z 32015KT 03/M03 A302 RMK A01 T00311028  RH  065%=      5-min Rain = 0
KLO1 191051Z 32017KT 03/M03 A302 RMK A01 T00301028  RH  065%=      5-min Rain = 0
KLO1 191052Z 32017KT 03/M03 A302 RMK A01 T00301028  RH  066%=      5-min Rain = 0
KLO1 191053Z 32017KT 03/M03 A302 RMK A01 T00301028  RH  065%=      5-min Rain = 0
KLO1 191054Z 32016KT 03/M03 A302 RMK A01 T00301028  RH  065%=      5-min Rain = 0
KLO1 191055Z 33017KT 03/M03 A302 RMK A01 T00301029  RH  065%=      5-min Rain = 0
KLO1 191056Z 32016KT 03/M03 A302 RMK A01 T00301028  RH  065%=      5-min Rain = 0
KLO1 191057Z 33017KT 03/M03 A302 RMK A01 T00311028  RH  065%=      5-min Rain = 0
KLO1 191058Z 33016KT 03/M03 A302 RMK A01 T00311029  RH  065%=      5-min Rain = 0
KLO1 191059Z 33017G23KT 03/M03 A302 RMK A01 T00311029  RH  065%=      5-min Rain = 0
KLO1 191100Z 33018KT 03/M03 A302 RMK A01 T00311029  RH  065%=      5-min Rain = 0
KLO1 191101Z 33018KT 03/M03 A302 RMK A01 T00311029  RH  065%=      5-min Rain = 0
KLO1 191102Z 33018KT 03/M03 A302 RMK A01 T00321029  RH  065%=      5-min Rain = 0
KLO1 191103Z 33017KT 03/M03 A302 RMK A01 T00321029  RH  064%=      5-min Rain = 0
KLO1 191104Z 33018KT 03/M03 A302 RMK A01 T00321030  RH  064%=      5-min Rain = 0
KLO1 191105Z 33017KT 03/M03 A302 RMK A01 T00321030  RH  064%=      5-min Rain = 0
KLO1 191106Z 33016KT 03/M03 A302 RMK A01 T00321030  RH  064%=      5-min Rain = 0
KLO1 191107Z 33017KT 03/M03 A302 RMK A01 T00321030  RH  064%=      5-min Rain = 0
KLO1 191108Z 33017KT 03/M03 A302 RMK A01 T00311030  RH  064%=      5-min Rain = 0
KLO1 191109Z 33018KT 03/M03 A302 RMK A01 T00311030  RH  064%=      5-min Rain = 0
KLO1 191110Z 33015KT 03/M03 A302 RMK A01 T00311030  RH  064%=      5-min Rain = 0
KLO1 191111Z 33017KT 03/M03 A302 RMK A01 T00311030  RH  064%=      5-min Rain = 0
KLO1 191112Z 33018KT 03/M03 A302 RMK A01 T00311030  RH  064%=      5-min Rain = 0
KLO1 191113Z 33017KT 03/M03 A302 RMK A01 T00311031  RH  064%=      5-min Rain = 0
KLO1 191114Z 33017KT 03/M03 A302 RMK A01 T00311031  RH  064%=      5-min Rain = 0
KLO1 191115Z 33016KT 03/M03 A302 RMK A01 T00311030  RH  064%=      5-min Rain = 0
KLO1 191116Z 33017KT 03/M03 A302 RMK A01 T00301031  RH  064%=      5-min Rain = 0
KLO1 191117Z 33018KT 03/M03 A302 RMK A01 T00301030  RH  064%=      5-min Rain = 0
KLO1 191118Z 33018KT 03/M03 A3021 RMK A01 T00301031  RH  064%=      5-min Rain = 0
KLO1 191119Z 33017KT 03/M03 A3021 RMK A01 T00301030  RH  064%=      5-min Rain = 0
KLO1 191120Z 33016KT 03/M03 A3021 RMK A01 T00301030  RH  064%=      5-min Rain = 0
KLO1 191121Z 33018KT 03/M03 A3021 RMK A01 T00301030  RH  065%=      5-min Rain = 0
KLO1 191122Z 33018KT 03/M03 A3021 RMK A01 T00301030  RH  065%=      5-min Rain = 0
KLO1 191123Z 33016KT 03/M03 A3021 RMK A01 T00301030  RH  065%=      5-min Rain = 0
KLO1 191124Z 33017KT 03/M03 A302 RMK A01 T00301030  RH  064%=      5-min Rain = 0
KLO1 191125Z 33018KT 03/M03 A302 RMK A01 T00311031  RH  064%=      5-min Rain = 0
KLO1 191126Z 33017KT 03/M03 A302 RMK A01 T00301032  RH  064%=      5-min Rain = 0
KLO1 191127Z 33020KT 03/M03 A302 RMK A01 T00301032  RH  064%=      5-min Rain = 0
KLO1 191128Z 33019KT 03/M03 A3021 RMK A01 T00311032  RH  063%=      5-min Rain = 0
KLO1 191129Z 33018KT 03/M03 A302 RMK A01 T00311032  RH  063%=      5-min Rain = 0
KLO1 191130Z 33015KT 03/M03 A3021 RMK A01 T00311032  RH  063%=      5-min Rain = 0
KLO1 191131Z 33017KT 03/M03 A3021 RMK A01 T00301033  RH  063%=      5-min Rain = 0
KLO1 191132Z 33018KT 03/M03 A3021 RMK A01 T00301033  RH  063%=      5-min Rain = 0
KLO1 191133Z 34018KT 03/M03 A3021 RMK A01 T00301033  RH  063%=      5-min Rain = 0
KLO1 191134Z 33020G25KT 03/M03 A3021 RMK A01 T00301034  RH  063%=      5-min Rain = 0
KLO1 191135Z 33019KT 03/M03 A3021 RMK A01 T00311034  RH  063%=      5-min Rain = 0
KLO1 191136Z 33018KT 03/M03 A3021 RMK A01 T00311034  RH  062%=      5-min Rain = 0
KLO1 191137Z 33018KT 03/M03 A3021 RMK A01 T00311034  RH  062%=      5-min Rain = 0
KLO1 191138Z 34018G23KT 03/M03 A3021 RMK A01 T00311034  RH  062%=      5-min Rain = 0
KLO1 191139Z 34019KT 03/M03 A3021 RMK A01 T00301034  RH  062%=      5-min Rain = 0
KLO1 191140Z 33019KT 03/M04 A3021 RMK A01 T00301035  RH  062%=      5-min Rain = 0
KLO1 191141Z 34015KT 03/M04 A3021 RMK A01 T00301035  RH  062%=      5-min Rain = 0
KLO1 191142Z 34016G22KT 03/M04 A3021 RMK A01 T00301035  RH  062%=      5-min Rain = 0
KLO1 191143Z 34017KT 03/M04 A3021 RMK A01 T00291035  RH  063%=      5-min Rain = 0
KLO1 191144Z 34018G23KT 03/M04 A3021 RMK A01 T00291035  RH  063%=      5-min Rain = 0
KLO1 191145Z 34019G24KT 03/M04 A3021 RMK A01 T00301035  RH  062%=      5-min Rain = 0
KLO1 191146Z 34019KT 03/M04 A3021 RMK A01 T00301036  RH  062%=      5-min Rain = 0
KLO1 191147Z 34019KT 03/M04 A3021 RMK A01 T00301036  RH  062%=      5-min Rain = 0
KLO1 191148Z 34015KT 03/M04 A3021 RMK A01 T00301036  RH  062%=      5-min Rain = 0
KLO1 191149Z 34016KT 03/M04 A3021 RMK A01 T00301036  RH  062%=      5-min Rain = 0
KLO1 191150Z 34018KT 03/M04 A3021 RMK A01 T00291036  RH  062%=      5-min Rain = 0
KLO1 191151Z 34016KT 03/M04 A3021 RMK A01 T00291036  RH  062%=      5-min Rain = 0
KLO1 191152Z 34016KT 03/M04 A3021 RMK A01 T00301035  RH  062%=      5-min Rain = 0
KLO1 191153Z 34016KT 03/M04 A3022 RMK A01 T00291035  RH  063%=      5-min Rain = 0
KLO1 191154Z 34015KT 03/M04 A3022 RMK A01 T00291035  RH  063%=      5-min Rain = 0
KLO1 191155Z 34016KT 03/M04 A3022 RMK A01 T00281035  RH  063%=      5-min Rain = 0
KLO1 191156Z 34015KT 03/M04 A3022 RMK A01 T00281035  RH  063%=      5-min Rain = 0
KLO1 191157Z 34014KT 03/M04 A3022 RMK A01 T00281035  RH  063%=      5-min Rain = 0
KLO1 191158Z 33015KT 03/M04 A3022 RMK A01 T00281035  RH  063%=      5-min Rain = 0
KLO1 191159Z 33015KT 03/M04 A3022 RMK A01 T00271035  RH  064%=      5-min Rain = 0
KLO1 191200Z 33014KT 03/M04 A3022 RMK A01 T00281035  RH  064%=      5-min Rain = 0
KLO1 191201Z 33013KT 03/M03 A3022 RMK A01 T00281034  RH  064%=      5-min Rain = 0
KLO1 191202Z 33013KT 03/M04 A3022 RMK A01 T00271035  RH  064%=      5-min Rain = 0
KLO1 191203Z 33014KT 03/M03 A3022 RMK A01 T00271034  RH  064%=      5-min Rain = 0
KLO1 191204Z 33016KT 03/M03 A3022 RMK A01 T00271034  RH  064%=      5-min Rain = 0
KLO1 191205Z 33017G23KT 03/M03 A3023 RMK A01 T00271034  RH  064%=      5-min Rain = 0
KLO1 191206Z 33017KT 03/M03 A3023 RMK A01 T00281034  RH  064%=      5-min Rain = 0
KLO1 191207Z 33015KT 03/M03 A3023 RMK A01 T00281034  RH  064%=      5-min Rain = 0
KLO1 191208Z 33014KT 03/M03 A3023 RMK A01 T00281034  RH  064%=      5-min Rain = 0
KLO1 191209Z 33015G20KT 03/M03 A3023 RMK A01 T00281034  RH  064%=      5-min Rain = 0
KLO1 191210Z 33016KT 03/M03 A3023 RMK A01 T00281034  RH  064%=      5-min Rain = 0
KLO1 191211Z 33017KT 03/M03 A3023 RMK A01 T00281034  RH  064%=      5-min Rain = 0
KLO1 191212Z 34015KT 03/M03 A3023 RMK A01 T00281034  RH  063%=      5-min Rain = 0
KLO1 191213Z 34016KT 03/M03 A3023 RMK A01 T00281034  RH  063%=      5-min Rain = 0
KLO1 191214Z 34016KT 03/M03 A3023 RMK A01 T00281034  RH  063%=      5-min Rain = 0
KLO1 191215Z 34017KT 03/M03 A3023 RMK A01 T00281034  RH  064%=      5-min Rain = 0
KLO1 191216Z 34016KT 03/M03 A3023 RMK A01 T00281034  RH  064%=      5-min Rain = 0
KLO1 191217Z 34017KT 03/M04 A3023 RMK A01 T00281035  RH  063%=      5-min Rain = 0
KLO1 191218Z 34015KT 03/M04 A3023 RMK A01 T00281035  RH  063%=      5-min Rain = 0
KLO1 191219Z 34018KT 03/M04 A3023 RMK A01 T00281035  RH  063%=      5-min Rain = 0
KLO1 191220Z 34018KT 03/M04 A3023 RMK A01 T00281035  RH  063%=      5-min Rain = 0
KLO1 191221Z 34014KT 03/M03 A3023 RMK A01 T00281034  RH  063%=      5-min Rain = 0
KLO1 191222Z 34017KT 03/M03 A3023 RMK A01 T00281034  RH  063%=      5-min Rain = 0
KLO1 191223Z 34017KT 03/M04 A3023 RMK A01 T00281035  RH  063%=      5-min Rain = 0
KLO1 191224Z 34017KT 03/M04 A3023 RMK A01 T00291035  RH  063%=      5-min Rain = 0
KLO1 191225Z 35017KT 03/M04 A3023 RMK A01 T00281035  RH  063%=      5-min Rain = 0
KLO1 191226Z 34019KT 03/M04 A3023 RMK A01 T00291035  RH  063%=      5-min Rain = 0
KLO1 191227Z 34017G22KT 03/M04 A3023 RMK A01 T00291035  RH  063%=      5-min Rain = 0
KLO1 191228Z 34015KT 03/M04 A3024 RMK A01 T00291035  RH  063%=      5-min Rain = 0
KLO1 191229Z 34015KT 03/M04 A3024 RMK A01 T00291035  RH  063%=      5-min Rain = 0
KLO1 191230Z 34016KT 03/M04 A3024 RMK A01 T00281035  RH  063%=      5-min Rain = 0
KLO1 191231Z 34015KT 03/M04 A3024 RMK A01 T00281035  RH  063%=      5-min Rain = 0
KLO1 191232Z 34016KT 03/M04 A3024 RMK A01 T00281035  RH  063%=      5-min Rain = 0
KLO1 191233Z 34016KT 03/M04 A3024 RMK A01 T00281035  RH  063%=      5-min Rain = 0
KLO1 191234Z 35014KT 03/M04 A3024 RMK A01 T00271035  RH  063%=      5-min Rain = 0
KLO1 191235Z 34015KT 03/M04 A3024 RMK A01 T00271035  RH  063%=      5-min Rain = 0
KLO1 191236Z 34015KT 03/M04 A3024 RMK A01 T00281035  RH  063%=      5-min Rain = 0
KLO1 191237Z 34013KT 03/M04 A3024 RMK A01 T00281035  RH  063%=      5-min Rain = 0
KLO1 191238Z 35013KT 03/M04 A3024 RMK A01 T00271035  RH  064%=      5-min Rain = 0
KLO1 191239Z 34014KT 03/M04 A3024 RMK A01 T00271035  RH  064%=      5-min Rain = 0
KLO1 191240Z 35013KT 03/M03 A3024 RMK A01 T00271034  RH  064%=      5-min Rain = 0
KLO1 191241Z 34012KT 03/M04 A3025 RMK A01 T00271035  RH  064%=      5-min Rain = 0
KLO1 191242Z 35014KT 03/M04 A3025 RMK A01 T00271035  RH  064%=      5-min Rain = 0
KLO1 191243Z 34013KT 03/M03 A3025 RMK A01 T00271034  RH  064%=      5-min Rain = 0
KLO1 191244Z 35014KT 03/M03 A3025 RMK A01 T00261034  RH  064%=      5-min Rain = 0
KLO1 191245Z 34014KT 03/M04 A3025 RMK A01 T00261035  RH  064%=      5-min Rain = 0
KLO1 191246Z 35015KT 03/M03 A3025 RMK A01 T00271034  RH  064%=      5-min Rain = 0
KLO1 191247Z 34014KT 03/M03 A3025 RMK A01 T00271034  RH  064%=      5-min Rain = 0
KLO1 191248Z 34013KT 03/M03 A3025 RMK A01 T00271034  RH  064%=      5-min Rain = 0
KLO1 191249Z 34013KT 03/M03 A3025 RMK A01 T00271034  RH  064%=      5-min Rain = 0
KLO1 191250Z 34013KT 03/M03 A3025 RMK A01 T00261034  RH  064%=      5-min Rain = 0
KLO1 191251Z 34013KT 03/M03 A3026 RMK A01 T00261034  RH  065%=      5-min Rain = 0
KLO1 191252Z 34013KT 03/M03 A3025 RMK A01 T00261034  RH  065%=      5-min Rain = 0
KLO1 191253Z 34012KT 03/M03 A3026 RMK A01 T00261034  RH  065%=      5-min Rain = 0
KLO1 191254Z 33012KT 03/M03 A3026 RMK A01 T00251034  RH  065%=      5-min Rain = 0
KLO1 191255Z 34013KT 03/M03 A3026 RMK A01 T00251034  RH  065%=      5-min Rain = 0
KLO1 191256Z 34012KT 03/M03 A3026 RMK A01 T00251034  RH  065%=      5-min Rain = 0
KLO1 191257Z 33013KT 03/M03 A3026 RMK A01 T00251034  RH  065%=      5-min Rain = 0
KLO1 191258Z 34012KT 03/M03 A3026 RMK A01 T00251034  RH  065%=      5-min Rain = 0
KLO1 191259Z 33011KT 03/M03 A3026 RMK A01 T00251034  RH  065%=      5-min Rain = 0
KLO1 191300Z 34013KT 03/M03 A3026 RMK A01 T00251034  RH  065%=      5-min Rain = 0
KLO1 191301Z 33013KT 02/M03 A3026 RMK A01 T00241034  RH  065%=      5-min Rain = 0
KLO1 191302Z 33011KT 02/M03 A3026 RMK A01 T00241034  RH  065%=      5-min Rain = 0
KLO1 191303Z 33011KT 02/M03 A3026 RMK A01 T00241034  RH  065%=      5-min Rain = 0
KLO1 191304Z 33011KT 02/M03 A3026 RMK A01 T00241034  RH  065%=      5-min Rain = 0
KLO1 191305Z 33011KT 02/M03 A3026 RMK A01 T00241034  RH  065%=      5-min Rain = 0
KLO1 191306Z 33012KT 02/M03 A3026 RMK A01 T00241034  RH  065%=      5-min Rain = 0
KLO1 191307Z 33012KT 02/M03 A3026 RMK A01 T00241034  RH  066%=      5-min Rain = 0
KLO1 191308Z 33013KT 02/M03 A3026 RMK A01 T00241034  RH  066%=      5-min Rain = 0
KLO1 191309Z 33013KT 02/M03 A3026 RMK A01 T00241034  RH  066%=      5-min Rain = 0
KLO1 191310Z 33012KT 02/M03 A3026 RMK A01 T00241034  RH  066%=      5-min Rain = 0
KLO1 191311Z 33012KT 02/M03 A3026 RMK A01 T00241034  RH  065%=      5-min Rain = 0
KLO1 191312Z 33011KT 02/M03 A3026 RMK A01 T00241034  RH  065%=      5-min Rain = 0
KLO1 191313Z 33011KT 02/M04 A3026 RMK A01 T00241035  RH  065%=      5-min Rain = 0
KLO1 191314Z 33013KT 02/M04 A3026 RMK A01 T00231035  RH  066%=      5-min Rain = 0
KLO1 191315Z 33012KT 02/M03 A3026 RMK A01 T00231034  RH  066%=      5-min Rain = 0
KLO1 191316Z 33011KT 02/M04 A3026 RMK A01 T00231035  RH  065%=      5-min Rain = 0
KLO1 191317Z 33011KT 02/M04 A3026 RMK A01 T00231035  RH  066%=      5-min Rain = 0
KLO1 191318Z 33013KT 02/M04 A3026 RMK A01 T00231035  RH  066%=      5-min Rain = 0
KLO1 191319Z 33012KT 02/M04 A3026 RMK A01 T00231035  RH  066%=      5-min Rain = 0
KLO1 191320Z 33012KT 02/M03 A3026 RMK A01 T00231034  RH  066%=      5-min Rain = 0
KLO1 191321Z 33012KT 02/M03 A3026 RMK A01 T00241034  RH  066%=      5-min Rain = 0
KLO1 191322Z 33012KT 02/M04 A3027 RMK A01 T00231035  RH  066%=      5-min Rain = 0
KLO1 191323Z 33012KT 02/M04 A3027 RMK A01 T00231035  RH  066%=      5-min Rain = 0
KLO1 191324Z 33013KT 02/M04 A3027 RMK A01 T00231035  RH  066%=      5-min Rain = 0
KLO1 191325Z 33012KT 02/M04 A3027 RMK A01 T00231035  RH  066%=      5-min Rain = 0
KLO1 191326Z 33013KT 02/M04 A3027 RMK A01 T00231035  RH  066%=      5-min Rain = 0
KLO1 191327Z 33013KT 02/M04 A3027 RMK A01 T00231035  RH  066%=      5-min Rain = 0
KLO1 191328Z 33012KT 02/M04 A3027 RMK A01 T00231035  RH  066%=      5-min Rain = 0
KLO1 191329Z 33013KT 02/M04 A3028 RMK A01 T00231035  RH  066%=      5-min Rain = 0
KLO1 191330Z 33013KT 02/M04 A3028 RMK A01 T00231035  RH  066%=      5-min Rain = 0
KLO1 191331Z 33012KT 02/M04 A3028 RMK A01 T00221035  RH  066%=      5-min Rain = 0
KLO1 191332Z 33012KT 02/M04 A3028 RMK A01 T00221035  RH  066%=      5-min Rain = 0
KLO1 191333Z 33012KT 02/M04 A3028 RMK A01 T00221035  RH  066%=      5-min Rain = 0
KLO1 191334Z 33012KT 02/M04 A3028 RMK A01 T00221035  RH  066%=      5-min Rain = 0
KLO1 191335Z 33012KT 02/M04 A3028 RMK A01 T00211035  RH  066%=      5-min Rain = 0
KLO1 191336Z 33012KT 02/M04 A3028 RMK A01 T00211035  RH  066%=      5-min Rain = 0
KLO1 191337Z 33012KT 02/M04 A3028 RMK A01 T00211035  RH  066%=      5-min Rain = 0
KLO1 191338Z 33012KT 02/M04 A3028 RMK A01 T00211035  RH  067%=      5-min Rain = 0
KLO1 191339Z 32012KT 02/M04 A3028 RMK A01 T00211035  RH  067%=      5-min Rain = 0
KLO1 191340Z 33011KT 02/M04 A3028 RMK A01 T00211035  RH  067%=      5-min Rain = 0
KLO1 191341Z 33011KT 02/M04 A3028 RMK A01 T00201035  RH  067%=      5-min Rain = 0
KLO1 191342Z 33012KT 02/M04 A3028 RMK A01 T00201035  RH  067%=      5-min Rain = 0
KLO1 191343Z 33012KT 02/M04 A3028 RMK A01 T00201035  RH  067%=      5-min Rain = 0
KLO1 191344Z 33012KT 02/M04 A3028 RMK A01 T00201035  RH  067%=      5-min Rain = 0
KLO1 191345Z 33012KT 02/M04 A3028 RMK A01 T00201035  RH  067%=      5-min Rain = 0
KLO1 191346Z 33012KT 02/M03 A3028 RMK A01 T00211034  RH  067%=      5-min Rain = 0
KLO1 191347Z 33011KT 02/M04 A3028 RMK A01 T00211035  RH  067%=      5-min Rain = 0
KLO1 191348Z 33011KT 02/M04 A3028 RMK A01 T00211035  RH  067%=      5-min Rain = 0
KLO1 191349Z 33011KT 02/M04 A3028 RMK A01 T00211035  RH  067%=      5-min Rain = 0
KLO1 191350Z 33011KT 02/M03 A3029 RMK A01 T00211034  RH  067%=      5-min Rain = 0
KLO1 191351Z 33011KT 02/M03 A3029 RMK A01 T00211034  RH  067%=      5-min Rain = 0
KLO1 191352Z 33010KT 02/M03 A3029 RMK A01 T00201034  RH  067%=      5-min Rain = 0
KLO1 191353Z 33010KT 02/M03 A3029 RMK A01 T00201034  RH  067%=      5-min Rain = 0
KLO1 191354Z 33011KT 02/M03 A3029 RMK A01 T00201033  RH  068%=      5-min Rain = 0
KLO1 191355Z 33011KT 02/M03 A3029 RMK A01 T00201033  RH  068%=      5-min Rain = 0
KLO1 191356Z 33010KT 02/M03 A3029 RMK A01 T00201033  RH  068%=      5-min Rain = 0
KLO1 191357Z 33010KT 02/M03 A3029 RMK A01 T00201033  RH  068%=      5-min Rain = 0
KLO1 191358Z 33010KT 02/M03 A3029 RMK A01 T00191033  RH  068%=      5-min Rain = 0
KLO1 191359Z 32010KT 02/M03 A3029 RMK A01 T00191033  RH  068%=      5-min Rain = 0
KLO1 191400Z 32010KT 02/M03 A3029 RMK A01 T00181033  RH  069%=      5-min Rain = 0
KLO1 191401Z 32010KT 02/M03 A3029 RMK A01 T00171034  RH  069%=      5-min Rain = 0
KLO1 191402Z 32009KT 02/M03 A3029 RMK A01 T00171033  RH  069%=      5-min Rain = 0
KLO1 191403Z 32009KT 02/M03 A3029 RMK A01 T00171033  RH  070%=      5-min Rain = 0
KLO1 191404Z 32009KT 02/M03 A303 RMK A01 T00161033  RH  070%=      5-min Rain = 0
KLO1 191405Z 32009KT 02/M03 A303 RMK A01 T00161032  RH  070%=      5-min Rain = 0
KLO1 191406Z 32009KT 02/M03 A303 RMK A01 T00161032  RH  070%=      5-min Rain = 0
KLO1 191407Z 32009KT 02/M03 A303 RMK A01 T00161032  RH  070%=      5-min Rain = 0
KLO1 191408Z 32009KT 02/M03 A303 RMK A01 T00161032  RH  070%=      5-min Rain = 0
KLO1 191409Z 32010KT 02/M03 A303 RMK A01 T00171031  RH  070%=      5-min Rain = 0
KLO1 191410Z 32009KT 02/M03 A303 RMK A01 T00181031  RH  070%=      5-min Rain = 0
KLO1 191411Z 32009KT 02/M03 A303 RMK A01 T00181031  RH  070%=      5-min Rain = 0
KLO1 191412Z 32009KT 02/M03 A303 RMK A01 T00181032  RH  069%=      5-min Rain = 0
KLO1 191413Z 32008KT 02/M03 A303 RMK A01 T00191032  RH  069%=      5-min Rain = 0
KLO1 191414Z 31008KT 02/M03 A3031 RMK A01 T00191031  RH  069%=      5-min Rain = 0
KLO1 191415Z 31008KT 02/M03 A3031 RMK A01 T00191032  RH  069%=      5-min Rain = 0
KLO1 191416Z 31007KT 02/M03 A3031 RMK A01 T00191032  RH  069%=      5-min Rain = 0
KLO1 191417Z 31007KT 02/M03 A3031 RMK A01 T00191032  RH  069%=      5-min Rain = 0
KLO1 191418Z 31007KT 02/M03 A3031 RMK A01 T00191032  RH  069%=      5-min Rain = 0
KLO1 191419Z 31006KT 02/M03 A3031 RMK A01 T00191032  RH  069%=      5-min Rain = 0
KLO1 191420Z 31006KT 02/M03 A3031 RMK A01 T00191031  RH  069%=      5-min Rain = 0
KLO1 191421Z 31006KT 02/M03 A3031 RMK A01 T00201031  RH  069%=      5-min Rain = 0
KLO1 191422Z 31006KT 02/M03 A3031 RMK A01 T00201031  RH  069%=      5-min Rain = 0
KLO1 191423Z 31006KT 02/M03 A3032 RMK A01 T00201031  RH  069%=      5-min Rain = 0
KLO1 191424Z 31005KT 02/M03 A3032 RMK A01 T00211030  RH  069%=      5-min Rain = 0
KLO1 191425Z 31006KT 02/M03 A3032 RMK A01 T00211031  RH  069%=      5-min Rain = 0
KLO1 191426Z 31006KT 02/M03 A3032 RMK A01 T00211031  RH  068%=      5-min Rain = 0
KLO1 191427Z 31006KT 02/M03 A3032 RMK A01 T00221031  RH  068%=      5-min Rain = 0
KLO1 191428Z 31006KT 02/M03 A3032 RMK A01 T00221031  RH  068%=      5-min Rain = 0
KLO1 191429Z 31005KT 02/M03 A3032 RMK A01 T00231031  RH  068%=      5-min Rain = 0
KLO1 191430Z 31005KT 02/M03 A3032 RMK A01 T00231030  RH  068%=      5-min Rain = 0
KLO1 191431Z 31005KT 02/M03 A3032 RMK A01 T00231030  RH  068%=      5-min Rain = 0
KLO1 191432Z 31005KT 02/M03 A3032 RMK A01 T00241030  RH  068%=      5-min Rain = 0
KLO1 191433Z 31005KT 02/M03 A3032 RMK A01 T00241030  RH  067%=      5-min Rain = 0
KLO1 191434Z 31005KT 02/M03 A3032 RMK A01 T00241030  RH  067%=      5-min Rain = 0
KLO1 191435Z 31005KT 03/M03 A3032 RMK A01 T00251029  RH  067%=      5-min Rain = 0
KLO1 191436Z 31004KT 03/M03 A3032 RMK A01 T00251029  RH  067%=      5-min Rain = 0
KLO1 191437Z 32004KT 03/M03 A3032 RMK A01 T00261029  RH  067%=      5-min Rain = 0
KLO1 191438Z 31005KT 03/M03 A3032 RMK A01 T00271029  RH  067%=      5-min Rain = 0
KLO1 191439Z 31005KT 03/M03 A3032 RMK A01 T00271029  RH  067%=      5-min Rain = 0
KLO1 191440Z 31005KT 03/M03 A3032 RMK A01 T00271029  RH  066%=      5-min Rain = 0
KLO1 191441Z 31005KT 03/M03 A3032 RMK A01 T00271030  RH  066%=      5-min Rain = 0
KLO1 191442Z 31004KT 03/M03 A3032 RMK A01 T00281029  RH  066%=      5-min Rain = 0
KLO1 191443Z 31004KT 03/M03 A3032 RMK A01 T00281030  RH  066%=      5-min Rain = 0
KLO1 191444Z 32004KT 03/M03 A3032 RMK A01 T00281029  RH  066%=      5-min Rain = 0
KLO1 191445Z 31004KT 03/M03 A3032 RMK A01 T00281029  RH  066%=      5-min Rain = 0
KLO1 191446Z 31004KT 03/M03 A3032 RMK A01 T00291028  RH  066%=      5-min Rain = 0
KLO1 191447Z 32004KT 03/M03 A3032 RMK A01 T00291028  RH  066%=      5-min Rain = 0
KLO1 191448Z 32004KT 03/M03 A3033 RMK A01 T00301028  RH  066%=      5-min Rain = 0
KLO1 191449Z 32004KT 03/M03 A3033 RMK A01 T00311027  RH  066%=      5-min Rain = 0
KLO1 191450Z 31004KT 03/M03 A3033 RMK A01 T00311028  RH  065%=      5-min Rain = 0
KLO1 191451Z 31005KT 03/M03 A3033 RMK A01 T00311028  RH  065%=      5-min Rain = 0
KLO1 191452Z 32004KT 03/M03 A3033 RMK A01 T00311028  RH  065%=      5-min Rain = 0
KLO1 191453Z 32004KT 03/M03 A3033 RMK A01 T00321027  RH  065%=      5-min Rain = 0
KLO1 191454Z 31004KT 03/M03 A3033 RMK A01 T00321027  RH  065%=      5-min Rain = 0
KLO1 191455Z 32004KT 03/M03 A3033 RMK A01 T00331026  RH  065%=      5-min Rain = 0
KLO1 191456Z 32006KT 03/M03 A3033 RMK A01 T00341025  RH  065%=      5-min Rain = 0
KLO1 191457Z 32006KT 04/M03 A3033 RMK A01 T00351026  RH  064%=      5-min Rain = 0
KLO1 191458Z 31005KT 04/M03 A3033 RMK A01 T00361025  RH  064%=      5-min Rain = 0
KLO1 191459Z 31006KT 04/M03 A3033 RMK A01 T00371026  RH  063%=      5-min Rain = 0
KLO1 191500Z 32006KT 04/M03 A3033 RMK A01 T00371025  RH  064%=      5-min Rain = 0
KLO1 191501Z 32007KT 04/M03 A3034 RMK A01 T00391025  RH  063%=      5-min Rain = 0
KLO1 191502Z 31007KT 04/M03 A3034 RMK A01 T00391025  RH  063%=      5-min Rain = 0
KLO1 191503Z 32006KT 04/M03 A3033 RMK A01 T00401025  RH  063%=      5-min Rain = 0
KLO1 191504Z 31008KT 04/M03 A3033 RMK A01 T00401025  RH  063%=      5-min Rain = 0
KLO1 191505Z 32008KT 04/M03 A3033 RMK A01 T00401025  RH  062%=      5-min Rain = 0
KLO1 191506Z 32009KT 04/M03 A3033 RMK A01 T00411025  RH  062%=      5-min Rain = 0
KLO1 191507Z 31008KT 04/M03 A3033 RMK A01 T00411026  RH  061%=      5-min Rain = 0
KLO1 191508Z 31008KT 04/M03 A3033 RMK A01 T00421025  RH  062%=      5-min Rain = 0
KLO1 191509Z 32007KT 04/M03 A3033 RMK A01 T00421026  RH  061%=      5-min Rain = 0
KLO1 191510Z 33008KT 04/M02 A3034 RMK A01 T00431024  RH  061%=      5-min Rain = 0
KLO1 191511Z 32008KT 05/M02 A3033 RMK A01 T00451024  RH  061%=      5-min Rain = 0
KLO1 191512Z 32008KT 05/M03 A3033 RMK A01 T00451025  RH  061%=      5-min Rain = 0
KLO1 191513Z 32008KT 05/M03 A3034 RMK A01 T00451025  RH  060%=      5-min Rain = 0
KLO1 191514Z 32009KT 05/M02 A3034 RMK A01 T00461024  RH  060%=      5-min Rain = 0
KLO1 191515Z 32008KT 05/M02 A3034 RMK A01 T00471024  RH  060%=      5-min Rain = 0
KLO1 191516Z 32009KT 05/M02 A3034 RMK A01 T00481024  RH  060%=      5-min Rain = 0
KLO1 191517Z 33011KT 05/M02 A3034 RMK A01 T00491024  RH  059%=      5-min Rain = 0
KLO1 191518Z 32011KT 05/M03 A3034 RMK A01 T00501025  RH  059%=      5-min Rain = 0
KLO1 191519Z 33011KT 05/M03 A3034 RMK A01 T00501025  RH  058%=      5-min Rain = 0
KLO1 191520Z 33010KT 05/M03 A3034 RMK A01 T00521025  RH  058%=      5-min Rain = 0
KLO1 191521Z 32013KT 05/M03 A3034 RMK A01 T00531025  RH  057%=      5-min Rain = 0
KLO1 191522Z 33014KT 05/M03 A3034 RMK A01 T00541026  RH  056%=      5-min Rain = 0
KLO1 191523Z 33012KT 05/M03 A3034 RMK A01 T00541027  RH  056%=      5-min Rain = 0
KLO1 191524Z 34010KT 05/M03 A3034 RMK A01 T00541026  RH  056%=      5-min Rain = 0
KLO1 191525Z 34012KT 06/M03 A3034 RMK A01 T00551025  RH  057%=      5-min Rain = 0
KLO1 191526Z 33014KT 06/M03 A3034 RMK A01 T00561026  RH  056%=      5-min Rain = 0
KLO1 191527Z 33014KT 06/M03 A3034 RMK A01 T00561027  RH  055%=      5-min Rain = 0
KLO1 191528Z 33012KT 06/M03 A3034 RMK A01 T00561027  RH  055%=      5-min Rain = 0
KLO1 191529Z 33015KT 06/M03 A3034 RMK A01 T00571026  RH  055%=      5-min Rain = 0
KLO1 191530Z 33015KT 06/M03 A3034 RMK A01 T00571027  RH  055%=      5-min Rain = 0
KLO1 191531Z 33011KT 06/M03 A3034 RMK A01 T00571027  RH  055%=      5-min Rain = 0
KLO1 191532Z 32010KT 06/M03 A3034 RMK A01 T00591025  RH  055%=      5-min Rain = 0
KLO1 191533Z 33013KT 06/M03 A3034 RMK A01 T00601025  RH  055%=      5-min Rain = 0
KLO1 191534Z 34013KT 06/M03 A3035 RMK A01 T00601026  RH  054%=      5-min Rain = 0
KLO1 191535Z 33015KT 06/M03 A3035 RMK A01 T00601026  RH  054%=      5-min Rain = 0
KLO1 191536Z 33014KT 06/M03 A3035 RMK A01 T00591027  RH  054%=      5-min Rain = 0
KLO1 191537Z 33015KT 06/M03 A3035 RMK A01 T00591027  RH  054%=      5-min Rain = 0
KLO1 191538Z 33015KT 06/M03 A3035 RMK A01 T00591030  RH  053%=      5-min Rain = 0
KLO1 191539Z 33017G22KT 06/M03 A3035 RMK A01 T00591030  RH  053%=      5-min Rain = 0
KLO1 191540Z 33018KT 06/M03 A3035 RMK A01 T00591029  RH  053%=      5-min Rain = 0
KLO1 191541Z 33017KT 06/M03 A3035 RMK A01 T00591028  RH  053%=      5-min Rain = 0
KLO1 191542Z 33014KT 06/M03 A3035 RMK A01 T00611029  RH  053%=      5-min Rain = 0
KLO1 191543Z 34013KT 06/M03 A3035 RMK A01 T00611030  RH  052%=      5-min Rain = 0
KLO1 191544Z 33014KT 06/M03 A3035 RMK A01 T00611030  RH  052%=      5-min Rain = 0
KLO1 191545Z 32015KT 06/M03 A3035 RMK A01 T00621028  RH  052%=      5-min Rain = 0
KLO1 191546Z 33014KT 06/M03 A3035 RMK A01 T00621029  RH  052%=      5-min Rain = 0
KLO1 191547Z 34013KT 06/M03 A3035 RMK A01 T00631029  RH  052%=      5-min Rain = 0
KLO1 191548Z 33013KT 06/M03 A3035 RMK A01 T00641029  RH  051%=      5-min Rain = 0
KLO1 191549Z 33015KT 06/M03 A3035 RMK A01 T00641029  RH  051%=      5-min Rain = 0
KLO1 191550Z 34016KT 06/M03 A3035 RMK A01 T00641030  RH  051%=      5-min Rain = 0
KLO1 191551Z 34016KT 06/M03 A3035 RMK A01 T00631032  RH  050%=      5-min Rain = 0
KLO1 191552Z 34015KT 06/M03 A3035 RMK A01 T00631033  RH  050%=      5-min Rain = 0
KLO1 191553Z 34015KT 06/M03 A3035 RMK A01 T00621033  RH  051%=      5-min Rain = 0
KLO1 191554Z 34017KT 06/M03 A3035 RMK A01 T00621032  RH  051%=      5-min Rain = 0
KLO1 191555Z 34016KT 06/M03 A3035 RMK A01 T00621032  RH  051%=      5-min Rain = 0
KLO1 191556Z 34013KT 06/M03 A3035 RMK A01 T00631031  RH  051%=      5-min Rain = 0
KLO1 191557Z 34013KT 06/M03 A3035 RMK A01 T00641030  RH  051%=      5-min Rain = 0
KLO1 191558Z 35013KT 07/M03 A3035 RMK A01 T00661030  RH  050%=      5-min Rain = 0
KLO1 191559Z 35013KT 07/M03 A3036 RMK A01 T00671029  RH  050%=      5-min Rain = 0
KLO1 191600Z 35014KT 07/M03 A3035 RMK A01 T00671032  RH  049%=      5-min Rain = 0
KLO1 191601Z 35013KT 07/M03 A3036 RMK A01 T00661032  RH  049%=      5-min Rain = 0
KLO1 191602Z 35015KT 07/M03 A3035 RMK A01 T00651033  RH  050%=      5-min Rain = 0
KLO1 191603Z 35011KT 07/M03 A3035 RMK A01 T00651032  RH  050%=      5-min Rain = 0
KLO1 191604Z 34012KT 07/M03 A3035 RMK A01 T00661030  RH  050%=      5-min Rain = 0
KLO1 191605Z 34013KT 07/M03 A3035 RMK A01 T00681029  RH  050%=      5-min Rain = 0
KLO1 191606Z 33016KT 07/M03 A3036 RMK A01 T00691030  RH  049%=      5-min Rain = 0
KLO1 191607Z 32017KT 07/M03 A3035 RMK A01 T00691031  RH  049%=      5-min Rain = 0
KLO1 191608Z 34018KT 07/M03 A3035 RMK A01 T00671033  RH  049%=      5-min Rain = 0
KLO1 191609Z 33017KT 07/M03 A3035 RMK A01 T00671032  RH  049%=      5-min Rain = 0
KLO1 191610Z 35013KT 07/M03 A3035 RMK A01 T00681033  RH  049%=      5-min Rain = 0
KLO1 191611Z 34011KT 07/M03 A3035 RMK A01 T00681032  RH  049%=      5-min Rain = 0
KLO1 191612Z 34012KT 07/M03 A3035 RMK A01 T00701029  RH  049%=      5-min Rain = 0
KLO1 191613Z 35011KT 07/M03 A3036 RMK A01 T00711031  RH  048%=      5-min Rain = 0
KLO1 191614Z 34011KT 07/M03 A3036 RMK A01 T00711031  RH  048%=      5-min Rain = 0
KLO1 191615Z 34013KT 07/M03 A3036 RMK A01 T00731028  RH  049%=      5-min Rain = 0
KLO1 191616Z 35014KT 07/M03 A3036 RMK A01 T00741030  RH  048%=      5-min Rain = 0
KLO1 191617Z 35013KT 07/M03 A3036 RMK A01 T00731032  RH  048%=      5-min Rain = 0
KLO1 191618Z 36014KT 07/M03 A3036 RMK A01 T00711033  RH  048%=      5-min Rain = 0
KLO1 191619Z 00014KT 07/M03 A3036 RMK A01 T00691033  RH  048%=      5-min Rain = 0
KLO1 191620Z 34013KT 07/M03 A3036 RMK A01 T00691032  RH  049%=      5-min Rain = 0
KLO1 191621Z 34011KT 07/M03 A3036 RMK A01 T00691030  RH  049%=      5-min Rain = 0
KLO1 191622Z 34015KT 07/M03 A3036 RMK A01 T00711030  RH  049%=      5-min Rain = 0
KLO1 191623Z 33015KT 07/M03 A3036 RMK A01 T00711031  RH  048%=      5-min Rain = 0
KLO1 191624Z 33013KT 07/M03 A3036 RMK A01 T00701032  RH  048%=      5-min Rain = 0
KLO1 191625Z 33014KT 07/M03 A3036 RMK A01 T00711031  RH  048%=      5-min Rain = 0
KLO1 191626Z 34016KT 07/M03 A3036 RMK A01 T00711032  RH  048%=      5-min Rain = 0
KLO1 191627Z 34016KT 07/M03 A3036 RMK A01 T00711032  RH  048%=      5-min Rain = 0
KLO1 191628Z 34014KT 07/M03 A3036 RMK A01 T00721031  RH  048%=      5-min Rain = 0
KLO1 191629Z 33015KT 07/M03 A3036 RMK A01 T00731031  RH  048%=      5-min Rain = 0
KLO1 191630Z 34015KT 07/M03 A3036 RMK A01 T00731031  RH  048%=      5-min Rain = 0
KLO1 191631Z 34012KT 07/M03 A3036 RMK A01 T00731031  RH  048%=      5-min Rain = 0
KLO1 191632Z 36010G16KT 07/M03 A3036 RMK A01 T00731030  RH  048%=      5-min Rain = 0
KLO1 191633Z 35012KT 07/M03 A3036 RMK A01 T00731032  RH  047%=      5-min Rain = 0
KLO1 191634Z 35011KT 07/M03 A3036 RMK A01 T00711033  RH  048%=      5-min Rain = 0
KLO1 191635Z 35013KT 07/M03 A3036 RMK A01 T00711031  RH  048%=      5-min Rain = 0
KLO1 191636Z 34014KT 07/M03 A3036 RMK A01 T00721030  RH  048%=      5-min Rain = 0
KLO1 191637Z 35010KT 07/M03 A3036 RMK A01 T00731030  RH  048%=      5-min Rain = 0
KLO1 191638Z 35009KT 07/M03 A3036 RMK A01 T00741029  RH  048%=      5-min Rain = 0
KLO1 191639Z 35012KT 08/M03 A3036 RMK A01 T00751029  RH  048%=      5-min Rain = 0
KLO1 191640Z 34012KT 08/M03 A3036 RMK A01 T00751028  RH  048%=      5-min Rain = 0
KLO1 191641Z 33014KT 08/M03 A3036 RMK A01 T00751028  RH  048%=      5-min Rain = 0
KLO1 191642Z 34016KT 08/M03 A3036 RMK A01 T00771028  RH  047%=      5-min Rain = 0
KLO1 191643Z 34014KT 08/M03 A3036 RMK A01 T00761029  RH  047%=      5-min Rain = 0
KLO1 191644Z 34014KT 08/M03 A3036 RMK A01 T00751031  RH  047%=      5-min Rain = 0
KLO1 191645Z 34011KT 08/M03 A3036 RMK A01 T00751031  RH  047%=      5-min Rain = 0
KLO1 191646Z 34014KT 08/M03 A3036 RMK A01 T00751030  RH  048%=      5-min Rain = 0
KLO1 191647Z 34013KT 08/M03 A3036 RMK A01 T00751030  RH  047%=      5-min Rain = 0
KLO1 191648Z 36012KT 08/M03 A3036 RMK A01 T00761029  RH  047%=      5-min Rain = 0
KLO1 191649Z 36012KT 08/M03 A3036 RMK A01 T00781030  RH  046%=      5-min Rain = 0
KLO1 191650Z 00014KT 08/M03 A3036 RMK A01 T00791032  RH  045%=      5-min Rain = 0
KLO1 191651Z 34015KT 08/M03 A3036 RMK A01 T00781034  RH  045%=      5-min Rain = 0
KLO1 191652Z 35015G20KT 08/M04 A3036 RMK A01 T00781035  RH  045%=      5-min Rain = 0
KLO1 191653Z 35013G18KT 08/M04 A3036 RMK A01 T00781035  RH  045%=      5-min Rain = 0
KLO1 191654Z 01015KT 08/M04 A3036 RMK A01 T00781035  RH  045%=      5-min Rain = 0
KLO1 191655Z 00015KT 08/M04 A3036 RMK A01 T00781036  RH  045%=      5-min Rain = 0
KLO1 191656Z 35015KT 08/M04 A3036 RMK A01 T00781036  RH  044%=      5-min Rain = 0
KLO1 191657Z 35012KT 08/M04 A3036 RMK A01 T00781035  RH  045%=      5-min Rain = 0
KLO1 191658Z 35013G18KT 08/M04 A3036 RMK A01 T00791035  RH  044%=      5-min Rain = 0
KLO1 191659Z 35012G17KT 08/M04 A3036 RMK A01 T00791035  RH  044%=      5-min Rain = 0
KLO1 191700Z 34012KT 08/M03 A3036 RMK A01 T00791034  RH  044%=      5-min Rain = 0
KLO1 191701Z 35013KT 08/M03 A3036 RMK A01 T00791034  RH  044%=      5-min Rain = 0
KLO1 191702Z 34012KT 08/M03 A3036 RMK A01 T00811034  RH  044%=      5-min Rain = 0
KLO1 191703Z 34013KT 08/M03 A3036 RMK A01 T00821034  RH  044%=      5-min Rain = 0
KLO1 191704Z 35012KT 09/M03 A3036 RMK A01 T00851032  RH  044%=      5-min Rain = 0
KLO1 191705Z 35011KT 09/M03 A3036 RMK A01 T00861033  RH  043%=      5-min Rain = 0
KLO1 191706Z 33016KT 09/M03 A3036 RMK A01 T00861034  RH  043%=      5-min Rain = 0
KLO1 191707Z 34016KT 09/M03 A3036 RMK A01 T00861034  RH  043%=      5-min Rain = 0
KLO1 191708Z 33015KT 09/M04 A3036 RMK A01 T00851035  RH  042%=      5-min Rain = 0
KLO1 191709Z 32015KT 09/M04 A3036 RMK A01 T00851036  RH  042%=      5-min Rain = 0
KLO1 191710Z 34018KT 09/M04 A3036 RMK A01 T00851037  RH  042%=      5-min Rain = 0
KLO1 191711Z 34016KT 09/M04 A3037 RMK A01 T00851040  RH  041%=      5-min Rain = 0
KLO1 191712Z 35014KT 08/M04 A3037 RMK A01 T00841040  RH  041%=      5-min Rain = 0
KLO1 191713Z 34014KT 08/M04 A3036 RMK A01 T00841039  RH  042%=      5-min Rain = 0
KLO1 191714Z 36013KT 09/M04 A3036 RMK A01 T00851037  RH  042%=      5-min Rain = 0
KLO1 191715Z 36011KT 09/M04 A3036 RMK A01 T00851037  RH  042%=      5-min Rain = 0
KLO1 191716Z 35013KT 09/M04 A3036 RMK A01 T00861037  RH  042%=      5-min Rain = 0
KLO1 191717Z 34014KT 09/M04 A3036 RMK A01 T00851037  RH  042%=      5-min Rain = 0
KLO1 191718Z 35012KT 09/M04 A3036 RMK A01 T00851036  RH  042%=      5-min Rain = 0
KLO1 191719Z 36011KT 09/M03 A3036 RMK A01 T00861034  RH  043%=      5-min Rain = 0
KLO1 191720Z 35012KT 09/M04 A3036 RMK A01 T00871035  RH  042%=      5-min Rain = 0
KLO1 191721Z 34013KT 09/M03 A3036 RMK A01 T00891034  RH  042%=      5-min Rain = 0
KLO1 191722Z 34012KT 09/M04 A3036 RMK A01 T00901036  RH  041%=      5-min Rain = 0
KLO1 191723Z 35014KT 09/M04 A3036 RMK A01 T00901038  RH  040%=      5-min Rain = 0
KLO1 191724Z 34018G23KT 09/M04 A3036 RMK A01 T00901041  RH  040%=      5-min Rain = 0
KLO1 191725Z 36013G19KT 09/M04 A3036 RMK A01 T00901041  RH  039%=      5-min Rain = 0
KLO1 191726Z 35013KT 09/M04 A3036 RMK A01 T00881042  RH  039%=      5-min Rain = 0
KLO1 191727Z 00012KT 09/M04 A3036 RMK A01 T00871042  RH  040%=      5-min Rain = 0
KLO1 191728Z 35012KT 09/M04 A3036 RMK A01 T00881040  RH  040%=      5-min Rain = 0
KLO1 191729Z 01013KT 09/M04 A3036 RMK A01 T00891039  RH  040%=      5-min Rain = 0
KLO1 191730Z 02012KT 09/M04 A3036 RMK A01 T00901038  RH  040%=      5-min Rain = 0
KLO1 191731Z 00014KT 09/M04 A3036 RMK A01 T00921037  RH  040%=      5-min Rain = 0
KLO1 191732Z 00010KT 09/M04 A3036 RMK A01 T00921039  RH  039%=      5-min Rain = 0
KLO1 191733Z 36012KT 09/M04 A3036 RMK A01 T00911038  RH  040%=      5-min Rain = 0
KLO1 191734Z 00011KT 09/M04 A3036 RMK A01 T00901039  RH  040%=      5-min Rain = 0
KLO1 191735Z 01011KT 09/M04 A3036 RMK A01 T00901036  RH  041%=      5-min Rain = 0
KLO1 191736Z 01010KT 09/M03 A3036 RMK A01 T00931033  RH  041%=      5-min Rain = 0
KLO1 191737Z 36012KT 10/M03 A3036 RMK A01 T00951032  RH  041%=      5-min Rain = 0
KLO1 191738Z 01011KT 09/M04 A3036 RMK A01 T00941036  RH  040%=      5-min Rain = 0
KLO1 191739Z 00011KT 09/M04 A3036 RMK A01 T00931036  RH  040%=      5-min Rain = 0
KLO1 191740Z 01012KT 09/M04 A3036 RMK A01 T00931035  RH  040%=      5-min Rain = 0
KLO1 191741Z 00013KT 09/M04 A3036 RMK A01 T00941036  RH  040%=      5-min Rain = 0
KLO1 191742Z 01014KT 09/M04 A3036 RMK A01 T00931036  RH  040%=      5-min Rain = 0
KLO1 191743Z 00009KT 09/M04 A3036 RMK A01 T00941035  RH  040%=      5-min Rain = 0
KLO1 191744Z 35008KT 09/M04 A3036 RMK A01 T00931035  RH  040%=      5-min Rain = 0
KLO1 191745Z 33012KT 09/M04 A3036 RMK A01 T00941035  RH  040%=      5-min Rain = 0
KLO1 191746Z 33012KT 10/M03 A3036 RMK A01 T00961034  RH  040%=      5-min Rain = 0
KLO1 191747Z 33010KT 10/M03 A3036 RMK A01 T00961034  RH  040%=      5-min Rain = 0
KLO1 191748Z 34011KT 10/M03 A3036 RMK A01 T00961034  RH  040%=      5-min Rain = 0
KLO1 191749Z 34009KT 10/M03 A3036 RMK A01 T00961033  RH  040%=      5-min Rain = 0
KLO1 191750Z 36010KT 10/M03 A3036 RMK A01 T00981032  RH  040%=      5-min Rain = 0
KLO1 191751Z 35010KT 10/M04 A3036 RMK A01 T00991036  RH  039%=      5-min Rain = 0
KLO1 191752Z 35011KT 10/M04 A3036 RMK A01 T00971037  RH  039%=      5-min Rain = 0
KLO1 191753Z 36010KT 10/M04 A3036 RMK A01 T00961036  RH  039%=      5-min Rain = 0
KLO1 191754Z 34012KT 10/M03 A3036 RMK A01 T00971033  RH  040%=      5-min Rain = 0
KLO1 191755Z 34014KT 10/M04 A3036 RMK A01 T00991037  RH  038%=      5-min Rain = 0
KLO1 191756Z 35015KT 10/M04 A3035 RMK A01 T00981040  RH  038%=      5-min Rain = 0
KLO1 191757Z 00013KT 10/M04 A3036 RMK A01 T00971040  RH  038%=      5-min Rain = 0
KLO1 191758Z 01014KT 10/M04 A3036 RMK A01 T00971039  RH  038%=      5-min Rain = 0
KLO1 191759Z 00013KT 10/M04 A3035 RMK A01 T00981039  RH  038%=      5-min Rain = 0
KLO1 191800Z 01011KT 10/M04 A3035 RMK A01 T00981037  RH  038%=      5-min Rain = 0
KLO1 191801Z 35011KT 10/M04 A3035 RMK A01 T00991038  RH  038%=      5-min Rain = 0
KLO1 191802Z 36013KT 10/M04 A3035 RMK A01 T01001036  RH  038%=      5-min Rain = 0
KLO1 191803Z 35012KT 10/M04 A3035 RMK A01 T01011036  RH  038%=      5-min Rain = 0
KLO1 191804Z 35012KT 10/M04 A3035 RMK A01 T01011037  RH  038%=      5-min Rain = 0
KLO1 191805Z 36012KT 10/M04 A3035 RMK A01 T01011036  RH  038%=      5-min Rain = 0
KLO1 191806Z 34012KT 10/M04 A3035 RMK A01 T01011037  RH  038%=      5-min Rain = 0
KLO1 191807Z 36012KT 10/M04 A3035 RMK A01 T01011036  RH  038%=      5-min Rain = 0
KLO1 191808Z 00014KT 10/M04 A3035 RMK A01 T01011036  RH  038%=      5-min Rain = 0
KLO1 191809Z 01013KT 10/M04 A3035 RMK A01 T01001038  RH  038%=      5-min Rain = 0
KLO1 191810Z 01013KT 10/M04 A3035 RMK A01 T01001036  RH  038%=      5-min Rain = 0
KLO1 191811Z 35011KT 10/M04 A3035 RMK A01 T01011036  RH  038%=      5-min Rain = 0
KLO1 191812Z 35013KT 10/M04 A3035 RMK A01 T01021037  RH  037%=      5-min Rain = 0
KLO1 191813Z 34013KT 10/M04 A3035 RMK A01 T01021036  RH  038%=      5-min Rain = 0
KLO1 191814Z 35012KT 10/M04 A3035 RMK A01 T01011038  RH  037%=      5-min Rain = 0
KLO1 191815Z 00009KT 10/M04 A3035 RMK A01 T01011036  RH  038%=      5-min Rain = 0
KLO1 191816Z 35010KT 10/M04 A3035 RMK A01 T01031036  RH  038%=      5-min Rain = 0
KLO1 191817Z 35011KT 10/M04 A3035 RMK A01 T01041036  RH  037%=      5-min Rain = 0
KLO1 191818Z 35013KT 11/M04 A3035 RMK A01 T01051037  RH  037%=      5-min Rain = 0
KLO1 191819Z 34013KT 11/M04 A3035 RMK A01 T01061037  RH  036%=      5-min Rain = 0
KLO1 191820Z 34014KT 11/M04 A3035 RMK A01 T01071036  RH  036%=      5-min Rain = 0
KLO1 191821Z 34013KT 11/M04 A3035 RMK A01 T01061038  RH  036%=      5-min Rain = 0
KLO1 191822Z 34013KT 10/M04 A3035 RMK A01 T01041037  RH  037%=      5-min Rain = 0
KLO1 191823Z 33012KT 10/M04 A3035 RMK A01 T01041037  RH  037%=      5-min Rain = 0
KLO1 191824Z 35010G15KT 10/M04 A3035 RMK A01 T01041037  RH  037%=      5-min Rain = 0
KLO1 191825Z 01013KT 11/M04 A3035 RMK A01 T01051035  RH  037%=      5-min Rain = 0
KLO1 191826Z 35010KT 11/M04 A3035 RMK A01 T01061037  RH  036%=      5-min Rain = 0
KLO1 191827Z 34012KT 11/M04 A3035 RMK A01 T01061037  RH  036%=      5-min Rain = 0
KLO1 191828Z 34011KT 11/M04 A3035 RMK A01 T01061037  RH  036%=      5-min Rain = 0
KLO1 191829Z 35013KT 11/M04 A3035 RMK A01 T01061038  RH  036%=      5-min Rain = 0
KLO1 191830Z 35009KT 11/M04 A3035 RMK A01 T01071037  RH  036%=      5-min Rain = 0
KLO1 191831Z 34010KT 11/M03 A3035 RMK A01 T01091033  RH  037%=      5-min Rain = 0
KLO1 191832Z 34012KT 11/M04 A3035 RMK A01 T01101035  RH  036%=      5-min Rain = 0
KLO1 191833Z 35011KT 11/M04 A3035 RMK A01 T01101036  RH  036%=      5-min Rain = 0
KLO1 191834Z 35011G16KT 11/M04 A3035 RMK A01 T01091036  RH  036%=      5-min Rain = 0
KLO1 191835Z 35012KT 11/M04 A3035 RMK A01 T01091036  RH  036%=      5-min Rain = 0
KLO1 191836Z 35012KT 11/M04 A3035 RMK A01 T01091037  RH  036%=      5-min Rain = 0
KLO1 191837Z 35012KT 11/M04 A3035 RMK A01 T01091037  RH  036%=      5-min Rain = 0
KLO1 191838Z 35013KT 11/M04 A3034 RMK A01 T01071038  RH  036%=      5-min Rain = 0
KLO1 191839Z 35014KT 11/M04 A3034 RMK A01 T01061039  RH  036%=      5-min Rain = 0
KLO1 191840Z 35015KT 11/M04 A3034 RMK A01 T01061039  RH  036%=      5-min Rain = 0
KLO1 191841Z 34013KT 11/M04 A3034 RMK A01 T01061038  RH  036%=      5-min Rain = 0
KLO1 191842Z 35013KT 11/M04 A3034 RMK A01 T01071037  RH  036%=      5-min Rain = 0
KLO1 191843Z 35013KT 11/M04 A3034 RMK A01 T01081038  RH  036%=      5-min Rain = 0
KLO1 191844Z 35013KT 11/M04 A3034 RMK A01 T01081038  RH  036%=      5-min Rain = 0
KLO1 191845Z 34015KT 11/M04 A3034 RMK A01 T01081039  RH  035%=      5-min Rain = 0
KLO1 191846Z 34015KT 11/M04 A3034 RMK A01 T01071039  RH  036%=      5-min Rain = 0
KLO1 191847Z 34014KT 11/M04 A3034 RMK A01 T01081038  RH  036%=      5-min Rain = 0
KLO1 191848Z 34012KT 11/M04 A3034 RMK A01 T01081038  RH  036%=      5-min Rain = 0
KLO1 191849Z 35011KT 11/M04 A3034 RMK A01 T01081038  RH  036%=      5-min Rain = 0
KLO1 191850Z 33013KT 11/M04 A3034 RMK A01 T01091038  RH  036%=      5-min Rain = 0
KLO1 191851Z 33013KT 11/M04 A3034 RMK A01 T01091037  RH  036%=      5-min Rain = 0
KLO1 191852Z 32012KT 11/M04 A3034 RMK A01 T01091037  RH  036%=      5-min Rain = 0
KLO1 191853Z 33012KT 11/M04 A3034 RMK A01 T01091037  RH  036%=      5-min Rain = 0
KLO1 191854Z 34010KT 11/M04 A3034 RMK A01 T01081039  RH  035%=      5-min Rain = 0
KLO1 191855Z 35011KT 11/M04 A3033 RMK A01 T01071037  RH  036%=      5-min Rain = 0
KLO1 191856Z 36013KT 11/M04 A3033 RMK A01 T01081038  RH  036%=      5-min Rain = 0
KLO1 191857Z 00011KT 11/M04 A3033 RMK A01 T01091038  RH  036%=      5-min Rain = 0
KLO1 191858Z 36010KT 11/M04 A3033 RMK A01 T01091037  RH  036%=      5-min Rain = 0
KLO1 191859Z 35012KT 11/M04 A3033 RMK A01 T01101035  RH  036%=      5-min Rain = 0
KLO1 191900Z 34012KT 11/M04 A3033 RMK A01 T01111036  RH  036%=      5-min Rain = 0
KLO1 191901Z 34009KT 11/M04 A3033 RMK A01 T01101036  RH  036%=      5-min Rain = 0
KLO1 191902Z 34010KT 11/M03 A3033 RMK A01 T01111034  RH  036%=      5-min Rain = 0
KLO1 191903Z 34011KT 11/M03 A3033 RMK A01 T01141033  RH  036%=      5-min Rain = 0
KLO1 191904Z 34013KT 12/M03 A3033 RMK A01 T01151034  RH  035%=      5-min Rain = 0
KLO1 191905Z 34013KT 12/M04 A3033 RMK A01 T01151035  RH  035%=      5-min Rain = 0
KLO1 191906Z 35012KT 11/M04 A3033 RMK A01 T01141036  RH  035%=      5-min Rain = 0
KLO1 191907Z 34011KT 12/M04 A3033 RMK A01 T01151035  RH  035%=      5-min Rain = 0
KLO1 191908Z 34012KT 12/M04 A3033 RMK A01 T01151035  RH  035%=      5-min Rain = 0
KLO1 191909Z 34013KT 12/M04 A3033 RMK A01 T01151035  RH  035%=      5-min Rain = 0
KLO1 191910Z 33013KT 12/M04 A3033 RMK A01 T01161036  RH  034%=      5-min Rain = 0
KLO1 191911Z 33012KT 12/M04 A3032 RMK A01 T01151037  RH  034%=      5-min Rain = 0
KLO1 191912Z 33011KT 11/M04 A3032 RMK A01 T01141037  RH  034%=      5-min Rain = 0
KLO1 191913Z 32013G22KT 11/M04 A3032 RMK A01 T01131036  RH  035%=      5-min Rain = 0
KLO1 191914Z 33013KT 12/M04 A3032 RMK A01 T01151035  RH  035%=      5-min Rain = 0
KLO1 191915Z 33012KT 12/M04 A3032 RMK A01 T01161036  RH  034%=      5-min Rain = 0
KLO1 191916Z 34016KT 12/M04 A3032 RMK A01 T01171035  RH  034%=      5-min Rain = 0
KLO1 191917Z 33010KT 12/M04 A3032 RMK A01 T01181038  RH  033%=      5-min Rain = 0
KLO1 191918Z 35010KT 12/M04 A3032 RMK A01 T01151037  RH  034%=      5-min Rain = 0
KLO1 191919Z 35011KT 12/M04 A3032 RMK A01 T01161035  RH  035%=      5-min Rain = 0
KLO1 191920Z 36013KT 12/M04 A3031 RMK A01 T01181035  RH  034%=      5-min Rain = 0
KLO1 191921Z 35011KT 12/M04 A3031 RMK A01 T01181038  RH  033%=      5-min Rain = 0
KLO1 191922Z 35013KT 12/M04 A3031 RMK A01 T01181036  RH  034%=      5-min Rain = 0
KLO1 191923Z 35014KT 12/M04 A3031 RMK A01 T01191036  RH  034%=      5-min Rain = 0
KLO1 191924Z 35013KT 12/M04 A3031 RMK A01 T01181037  RH  034%=      5-min Rain = 0
KLO1 191925Z 34012KT 12/M04 A3031 RMK A01 T01181036  RH  034%=      5-min Rain = 0
KLO1 191926Z 35013KT 12/M04 A3031 RMK A01 T01171037  RH  034%=      5-min Rain = 0
KLO1 191927Z 34013KT 12/M04 A3031 RMK A01 T01171039  RH  033%=      5-min Rain = 0
KLO1 191928Z 35011KT 12/M04 A3031 RMK A01 T01161036  RH  034%=      5-min Rain = 0
KLO1 191929Z 34017KT 12/M04 A3031 RMK A01 T01181037  RH  034%=      5-min Rain = 0
KLO1 191930Z 34017KT 12/M04 A3031 RMK A01 T01191038  RH  033%=      5-min Rain = 0
KLO1 191931Z 34011KT 12/M04 A3031 RMK A01 T01201038  RH  033%=      5-min Rain = 0
KLO1 191932Z 35012KT 12/M04 A3031 RMK A01 T01201037  RH  033%=      5-min Rain = 0
KLO1 191933Z 36010KT 12/M04 A3031 RMK A01 T01201037  RH  033%=      5-min Rain = 0
KLO1 191934Z 36010KT 12/M04 A3031 RMK A01 T01201036  RH  033%=      5-min Rain = 0
KLO1 191935Z 00011KT 12/M04 A3031 RMK A01 T01211036  RH  033%=      5-min Rain = 0
KLO1 191936Z 36011KT 12/M04 A3031 RMK A01 T01211036  RH  033%=      5-min Rain = 0
KLO1 191937Z 33012KT 12/M04 A3031 RMK A01 T01211036  RH  033%=      5-min Rain = 0
KLO1 191938Z 33013KT 12/M04 A303 RMK A01 T01231036  RH  033%=      5-min Rain = 0
KLO1 191939Z 32015KT 13/M03 A303 RMK A01 T01271033  RH  033%=      5-min Rain = 0
KLO1 191940Z 32014KT 13/M03 A3031 RMK A01 T01271034  RH  032%=      5-min Rain = 0
KLO1 191941Z 32016KT 13/M04 A303 RMK A01 T01271035  RH  032%=      5-min Rain = 0
KLO1 191942Z 33013KT 13/M04 A303 RMK A01 T01271036  RH  032%=      5-min Rain = 0
KLO1 191943Z 33017KT 13/M04 A303 RMK A01 T01271036  RH  032%=      5-min Rain = 0
KLO1 191944Z 32015KT 13/M04 A303 RMK A01 T01271037  RH  032%=      5-min Rain = 0
KLO1 191945Z 33016KT 13/M04 A303 RMK A01 T01261038  RH  032%=      5-min Rain = 0
KLO1 191946Z 32014KT 12/M04 A303 RMK A01 T01241038  RH  032%=      5-min Rain = 0
KLO1 191947Z 32012KT 13/M04 A303 RMK A01 T01251035  RH  033%=      5-min Rain = 0
KLO1 191948Z 32014KT 13/M04 A303 RMK A01 T01261036  RH  032%=      5-min Rain = 0
KLO1 191949Z 33012KT 13/M04 A303 RMK A01 T01261037  RH  032%=      5-min Rain = 0
KLO1 191950Z 33011KT 13/M04 A303 RMK A01 T01281035  RH  032%=      5-min Rain = 0
KLO1 191951Z 33016KT 13/M04 A303 RMK A01 T01301035  RH  032%=      5-min Rain = 0
KLO1 191952Z 34012KT 13/M04 A303 RMK A01 T01301036  RH  031%=      5-min Rain = 0
KLO1 191953Z 33013KT 13/M04 A303 RMK A01 T01291035  RH  032%=      5-min Rain = 0
KLO1 191954Z 33015KT 13/M04 A303 RMK A01 T01311035  RH  031%=      5-min Rain = 0
KLO1 191955Z 35010G15KT 13/M04 A303 RMK A01 T01301037  RH  031%=      5-min Rain = 0
KLO1 191956Z 35009KT 13/M04 A303 RMK A01 T01281037  RH  032%=      5-min Rain = 0
KLO1 191957Z 34012KT 13/M04 A303 RMK A01 T01281035  RH  032%=      5-min Rain = 0
KLO1 191958Z 34013KT 13/M04 A303 RMK A01 T01301035  RH  032%=      5-min Rain = 0
KLO1 191959Z 33012KT 13/M03 A3029 RMK A01 T01321034  RH  031%=      5-min Rain = 0
KLO1 192000Z 34014KT 13/M04 A3029 RMK A01 T01331036  RH  031%=      5-min Rain = 0
KLO1 192001Z 33014KT 13/M04 A3029 RMK A01 T01311038  RH  031%=      5-min Rain = 0
KLO1 192002Z 32014KT 13/M04 A3029 RMK A01 T01301037  RH  031%=      5-min Rain = 0
KLO1 192003Z 32014KT 13/M04 A3029 RMK A01 T01291039  RH  031%=      5-min Rain = 0
KLO1 192004Z 32013KT 13/M04 A3029 RMK A01 T01281039  RH  031%=      5-min Rain = 0
KLO1 192005Z 32016G25KT 13/M03 A3029 RMK A01 T01291034  RH  032%=      5-min Rain = 0
KLO1 192006Z 33016KT 13/M04 A3029 RMK A01 T01331035  RH  031%=      5-min Rain = 0
KLO1 192007Z 33015KT 13/M04 A3029 RMK A01 T01321038  RH  030%=      5-min Rain = 0
KLO1 192008Z 35014KT 13/M04 A3029 RMK A01 T01311038  RH  031%=      5-min Rain = 0
KLO1 192009Z 35011KT 13/M04 A3029 RMK A01 T01291040  RH  031%=      5-min Rain = 0
KLO1 192010Z 32011G17KT 13/M04 A3029 RMK A01 T01281039  RH  031%=      5-min Rain = 0
KLO1 192011Z 33014KT 13/M04 A3029 RMK A01 T01281038  RH  031%=      5-min Rain = 0
KLO1 192012Z 33011KT 13/M04 A3029 RMK A01 T01281037  RH  031%=      5-min Rain = 0
KLO1 192013Z 34013KT 13/M03 A3029 RMK A01 T01321033  RH  032%=      5-min Rain = 0
KLO1 192014Z 35014KT 14/M04 A3029 RMK A01 T01351035  RH  031%=      5-min Rain = 0
KLO1 192015Z 34018KT 13/M04 A3029 RMK A01 T01341037  RH  030%=      5-min Rain = 0
KLO1 192016Z 34017KT 13/M04 A3028 RMK A01 T01311040  RH  030%=      5-min Rain = 0
KLO1 192017Z 34019KT 13/M04 A3028 RMK A01 T01301039  RH  031%=      5-min Rain = 0
KLO1 192018Z 34017KT 13/M04 A3028 RMK A01 T01311038  RH  031%=      5-min Rain = 0
KLO1 192019Z 35017KT 13/M04 A3028 RMK A01 T01311038  RH  031%=      5-min Rain = 0
KLO1 192020Z 35017KT 13/M04 A3029 RMK A01 T01301039  RH  031%=      5-min Rain = 0
KLO1 192021Z 34014KT 13/M04 A3029 RMK A01 T01291038  RH  031%=      5-min Rain = 0
KLO1 192022Z 33016KT 13/M04 A3029 RMK A01 T01321035  RH  031%=      5-min Rain = 0
KLO1 192023Z 33015KT 13/M04 A3028 RMK A01 T01331036  RH  031%=      5-min Rain = 0
KLO1 192024Z 33016KT 13/M04 A3028 RMK A01 T01331036  RH  031%=      5-min Rain = 0
KLO1 192025Z 33015KT 13/M04 A3028 RMK A01 T01321037  RH  031%=      5-min Rain = 0
KLO1 192026Z 34011KT 13/M04 A3028 RMK A01 T01331036  RH  031%=      5-min Rain = 0
KLO1 192027Z 34010KT 13/M04 A3028 RMK A01 T01321037  RH  031%=      5-min Rain = 0
KLO1 192028Z 32015KT 13/M04 A3028 RMK A01 T01321036  RH  031%=      5-min Rain = 0
KLO1 192029Z 32016KT 13/M04 A3028 RMK A01 T01331036  RH  031%=      5-min Rain = 0
KLO1 192030Z 33017KT 13/M04 A3028 RMK A01 T01341035  RH  031%=      5-min Rain = 0
KLO1 192031Z 34014KT 13/M04 A3028 RMK A01 T01341037  RH  030%=      5-min Rain = 0
KLO1 192032Z 34014KT 13/M04 A3028 RMK A01 T01341035  RH  031%=      5-min Rain = 0
KLO1 192033Z 34015KT 13/M04 A3028 RMK A01 T01331035  RH  031%=      5-min Rain = 0
KLO1 192034Z 32017KT 14/M04 A3028 RMK A01 T01351035  RH  030%=      5-min Rain = 0
KLO1 192035Z 33017KT 14/M04 A3028 RMK A01 T01351037  RH  030%=      5-min Rain = 0
KLO1 192036Z 33015KT 13/M04 A3028 RMK A01 T01341037  RH  030%=      5-min Rain = 0
KLO1 192037Z 32019KT 14/M04 A3028 RMK A01 T01361037  RH  030%=      5-min Rain = 0
KLO1 192038Z 33014KT 14/M04 A3028 RMK A01 T01361039  RH  029%=      5-min Rain = 0
KLO1 192039Z 33016G22KT 13/M04 A3028 RMK A01 T01341039  RH  030%=      5-min Rain = 0
KLO1 192040Z 33017KT 13/M04 A3028 RMK A01 T01341041  RH  029%=      5-min Rain = 0
KLO1 192041Z 33014KT 13/M04 A3028 RMK A01 T01341040  RH  030%=      5-min Rain = 0
KLO1 192042Z 32015KT 13/M04 A3028 RMK A01 T01341039  RH  030%=      5-min Rain = 0
KLO1 192043Z 32014KT 14/M04 A3027 RMK A01 T01361038  RH  030%=      5-min Rain = 0
KLO1 192044Z 32017KT 14/M04 A3027 RMK A01 T01371039  RH  029%=      5-min Rain = 0
KLO1 192045Z 32016KT 14/M04 A3027 RMK A01 T01371040  RH  029%=      5-min Rain = 0
KLO1 192046Z 32018G27KT 14/M04 A3027 RMK A01 T01371039  RH  029%=      5-min Rain = 0
KLO1 192047Z 34016KT 14/M04 A3027 RMK A01 T01381039  RH  029%=      5-min Rain = 0
KLO1 192048Z 33016KT 14/M04 A3027 RMK A01 T01381038  RH  029%=      5-min Rain = 0
KLO1 192049Z 32016KT 14/M04 A3027 RMK A01 T01381040  RH  029%=      5-min Rain = 0
KLO1 192050Z 32016KT 14/M04 A3027 RMK A01 T01351042  RH  029%=      5-min Rain = 0
KLO1 192051Z 32017KT 13/M04 A3027 RMK A01 T01341042  RH  029%=      5-min Rain = 0
KLO1 192052Z 34016G21KT 13/M04 A3027 RMK A01 T01341039  RH  030%=      5-min Rain = 0
KLO1 192053Z 33014KT 14/M04 A3027 RMK A01 T01361039  RH  030%=      5-min Rain = 0
KLO1 192054Z 34012KT 14/M04 A3027 RMK A01 T01361038  RH  030%=      5-min Rain = 0
KLO1 192055Z 33013KT 14/M04 A3027 RMK A01 T01361038  RH  030%=      5-min Rain = 0
KLO1 192056Z 34013G18KT 14/M04 A3027 RMK A01 T01371038  RH  029%=      5-min Rain = 0
KLO1 192057Z 34016KT 14/M04 A3027 RMK A01 T01361040  RH  029%=      5-min Rain = 0
KLO1 192058Z 34016KT 14/M04 A3027 RMK A01 T01351041  RH  029%=      5-min Rain = 0
KLO1 192059Z 33015KT 14/M04 A3027 RMK A01 T01351040  RH  030%=      5-min Rain = 0
KLO1 192100Z 34016KT 14/M04 A3027 RMK A01 T01361039  RH  030%=      5-min Rain = 0
KLO1 192101Z 33016KT 14/M04 A3027 RMK A01 T01371039  RH  029%=      5-min Rain = 0
KLO1 192102Z 34014KT 14/M04 A3027 RMK A01 T01361040  RH  029%=      5-min Rain = 0
KLO1 192103Z 33013KT 14/M04 A3027 RMK A01 T01351038  RH  030%=      5-min Rain = 0
KLO1 192104Z 33015G21KT 14/M04 A3027 RMK A01 T01351038  RH  030%=      5-min Rain = 0
KLO1 192105Z 32014KT 14/M04 A3027 RMK A01 T01361037  RH  030%=      5-min Rain = 0
KLO1 192106Z 31015KT 14/M04 A3027 RMK A01 T01381036  RH  030%=      5-min Rain = 0
KLO1 192107Z 32017KT 14/M04 A3027 RMK A01 T01391038  RH  029%=      5-min Rain = 0
KLO1 192108Z 31013KT 14/M04 A3027 RMK A01 T01381038  RH  029%=      5-min Rain = 0
KLO1 192109Z 31012KT 14/M04 A3027 RMK A01 T01381037  RH  030%=      5-min Rain = 0
KLO1 192110Z 31011KT 14/M04 A3027 RMK A01 T01371036  RH  030%=      5-min Rain = 0
KLO1 192111Z 34013KT 14/M04 A3027 RMK A01 T01361036  RH  030%=      5-min Rain = 0
KLO1 192112Z 34013KT 14/M04 A3027 RMK A01 T01371035  RH  030%=      5-min Rain = 0
KLO1 192113Z 34012KT 14/M03 A3027 RMK A01 T01391034  RH  030%=      5-min Rain = 0
KLO1 192114Z 34017KT 14/M04 A3027 RMK A01 T01401035  RH  030%=      5-min Rain = 0
KLO1 192115Z 34013KT 14/M04 A3027 RMK A01 T01381038  RH  029%=      5-min Rain = 0
KLO1 192116Z 34013KT 14/M04 A3027 RMK A01 T01361039  RH  029%=      5-min Rain = 0
KLO1 192117Z 34013KT 14/M04 A3027 RMK A01 T01361039  RH  030%=      5-min Rain = 0
KLO1 192118Z 34015KT 14/M04 A3026 RMK A01 T01371038  RH  029%=      5-min Rain = 0
KLO1 192119Z 35016KT 14/M04 A3027 RMK A01 T01381039  RH  029%=      5-min Rain = 0
KLO1 192120Z 35012KT 14/M04 A3027 RMK A01 T01371039  RH  029%=      5-min Rain = 0
KLO1 192121Z 34011KT 14/M04 A3027 RMK A01 T01361038  RH  030%=      5-min Rain = 0
KLO1 192122Z 34012KT 14/M04 A3027 RMK A01 T01381036  RH  030%=      5-min Rain = 0
KLO1 192123Z 34011KT 14/M04 A3027 RMK A01 T01391037  RH  029%=      5-min Rain = 0
KLO1 192124Z 35012KT 14/M04 A3027 RMK A01 T01371038  RH  029%=      5-min Rain = 0
KLO1 192125Z 34012KT 14/M04 A3027 RMK A01 T01361039  RH  029%=      5-min Rain = 0
KLO1 192126Z 34017KT 14/M04 A3026 RMK A01 T01361040  RH  029%=      5-min Rain = 0
KLO1 192127Z 34016KT 14/M04 A3026 RMK A01 T01371042  RH  029%=      5-min Rain = 0
KLO1 192128Z 33014KT 14/M04 A3026 RMK A01 T01371041  RH  029%=      5-min Rain = 0
KLO1 192129Z 33016KT 14/M04 A3026 RMK A01 T01371042  RH  029%=      5-min Rain = 0
KLO1 192130Z 32014KT 14/M04 A3026 RMK A01 T01371041  RH  029%=      5-min Rain = 0
KLO1 192131Z 33012KT 14/M04 A3026 RMK A01 T01371040  RH  029%=      5-min Rain = 0
KLO1 192132Z 34014G19KT 14/M04 A3026 RMK A01 T01391037  RH  029%=      5-min Rain = 0
KLO1 192133Z 33014KT 14/M04 A3026 RMK A01 T01401038  RH  029%=      5-min Rain = 0
KLO1 192134Z 33015KT 14/M04 A3026 RMK A01 T01401037  RH  029%=      5-min Rain = 0
KLO1 192135Z 34013KT 14/M04 A3026 RMK A01 T01391038  RH  029%=      5-min Rain = 0
KLO1 192136Z 33016KT 14/M04 A3026 RMK A01 T01381038  RH  029%=      5-min Rain = 0
KLO1 192137Z 33015KT 14/M04 A3026 RMK A01 T01381038  RH  029%=      5-min Rain = 0
KLO1 192138Z 34014KT 14/M04 A3026 RMK A01 T01381038  RH  029%=      5-min Rain = 0
KLO1 192139Z 33012KT 14/M04 A3026 RMK A01 T01381038  RH  029%=      5-min Rain = 0
KLO1 192140Z 33011KT 14/M04 A3026 RMK A01 T01381038  RH  029%=      5-min Rain = 0
KLO1 192141Z 34011KT 14/M04 A3026 RMK A01 T01381037  RH  029%=      5-min Rain = 0
KLO1 192142Z 35013KT 14/M04 A3026 RMK A01 T01391036  RH  029%=      5-min Rain = 0
KLO1 192143Z 34012KT 14/M04 A3026 RMK A01 T01391038  RH  029%=      5-min Rain = 0
KLO1 192144Z 35011KT 14/M04 A3026 RMK A01 T01381038  RH  029%=      5-min Rain = 0
KLO1 192145Z 34012KT 14/M04 A3026 RMK A01 T01381037  RH  030%=      5-min Rain = 0
KLO1 192146Z 33012KT 14/M03 A3026 RMK A01 T01391034  RH  030%=      5-min Rain = 0
KLO1 192147Z 34012KT 14/M04 A3026 RMK A01 T01411035  RH  030%=      5-min Rain = 0
KLO1 192148Z 32014KT 14/M04 A3026 RMK A01 T01411035  RH  029%=      5-min Rain = 0
KLO1 192149Z 32011KT 14/M04 A3026 RMK A01 T01391036  RH  030%=      5-min Rain = 0
KLO1 192150Z 32010KT 14/M04 A3026 RMK A01 T01391036  RH  030%=      5-min Rain = 0
KLO1 192151Z 32011KT 14/M04 A3026 RMK A01 T01381035  RH  030%=      5-min Rain = 0
KLO1 192152Z 33011KT 14/M04 A3026 RMK A01 T01391035  RH  030%=      5-min Rain = 0
KLO1 192153Z 34012KT 14/M03 A3026 RMK A01 T01411034  RH  030%=      5-min Rain = 0
KLO1 192154Z 33012KT 14/M03 A3026 RMK A01 T01421034  RH  029%=      5-min Rain = 0
KLO1 192155Z 33012KT 14/M04 A3026 RMK A01 T01431035  RH  029%=      5-min Rain = 0
KLO1 192156Z 32013KT 14/M04 A3026 RMK A01 T01431036  RH  029%=      5-min Rain = 0
KLO1 192157Z 31012KT 14/M04 A3026 RMK A01 T01431036  RH  029%=      5-min Rain = 0
KLO1 192158Z 31010KT 14/M04 A3026 RMK A01 T01411036  RH  029%=      5-min Rain = 0
KLO1 192159Z 33012KT 14/M04 A3026 RMK A01 T01411036  RH  029%=      5-min Rain = 0
KLO1 192200Z 34013KT 14/M04 A3026 RMK A01 T01411037  RH  029%=      5-min Rain = 0
KLO1 192201Z 34012KT 14/M04 A3026 RMK A01 T01411036  RH  029%=      5-min Rain = 0
KLO1 192202Z 35010KT 14/M04 A3026 RMK A01 T01411037  RH  029%=      5-min Rain = 0
KLO1 192203Z 33010KT 14/M04 A3026 RMK A01 T01401037  RH  029%=      5-min Rain = 0
KLO1 192204Z 33009KT 14/M04 A3026 RMK A01 T01391037  RH  029%=      5-min Rain = 0
KLO1 192205Z 32011KT 14/M04 A3026 RMK A01 T01401035  RH  030%=      5-min Rain = 0
KLO1 192206Z 32010KT 14/M04 A3026 RMK A01 T01411036  RH  029%=      5-min Rain = 0
KLO1 192207Z 32013G18KT 14/M04 A3026 RMK A01 T01421036  RH  029%=      5-min Rain = 0
KLO1 192208Z 33015KT 14/M04 A3026 RMK A01 T01421039  RH  028%=      5-min Rain = 0
KLO1 192209Z 32014KT 14/M04 A3026 RMK A01 T01421041  RH  028%=      5-min Rain = 0
KLO1 192210Z 33012KT 14/M04 A3026 RMK A01 T01431042  RH  028%=      5-min Rain = 0
KLO1 192211Z 33012KT 14/M04 A3026 RMK A01 T01421043  RH  027%=      5-min Rain = 0
KLO1 192212Z 31016KT 14/M04 A3026 RMK A01 T01411043  RH  028%=      5-min Rain = 0
KLO1 192213Z 32014KT 14/M04 A3026 RMK A01 T01411042  RH  028%=      5-min Rain = 0
KLO1 192214Z 32015KT 14/M04 A3026 RMK A01 T01421041  RH  028%=      5-min Rain = 0
KLO1 192215Z 32012KT 14/M04 A3026 RMK A01 T01411042  RH  028%=      5-min Rain = 0
KLO1 192216Z 31011KT 14/M04 A3026 RMK A01 T01401041  RH  028%=      5-min Rain = 0
KLO1 192217Z 32011KT 14/M04 A3026 RMK A01 T01401041  RH  028%=      5-min Rain = 0
KLO1 192218Z 33011KT 14/M04 A3026 RMK A01 T01411040  RH  028%=      5-min Rain = 0
KLO1 192219Z 32011KT 14/M04 A3026 RMK A01 T01411040  RH  028%=      5-min Rain = 0
KLO1 192220Z 32011KT 14/M04 A3026 RMK A01 T01421041  RH  028%=      5-min Rain = 0
KLO1 192221Z 32015KT 14/M04 A3026 RMK A01 T01421041  RH  028%=      5-min Rain = 0
KLO1 192222Z 32013KT 14/M04 A3026 RMK A01 T01411043  RH  028%=      5-min Rain = 0
KLO1 192223Z 33014KT 14/M04 A3026 RMK A01 T01401042  RH  028%=      5-min Rain = 0
KLO1 192224Z 33015KT 14/M04 A3026 RMK A01 T01401040  RH  028%=      5-min Rain = 0
KLO1 192225Z 33015KT 14/M04 A3026 RMK A01 T01411042  RH  028%=      5-min Rain = 0
KLO1 192226Z 33014KT 14/M04 A3026 RMK A01 T01411043  RH  028%=      5-min Rain = 0
KLO1 192227Z 33014KT 14/M05 A3026 RMK A01 T01411045  RH  027%=      5-min Rain = 0
KLO1 192228Z 33012KT 14/M04 A3026 RMK A01 T01401044  RH  028%=      5-min Rain = 0
KLO1 192229Z 34012KT 14/M04 A3026 RMK A01 T01401042  RH  028%=      5-min Rain = 0
KLO1 192230Z 33009KT 14/M04 A3026 RMK A01 T01401042  RH  028%=      5-min Rain = 0
KLO1 192231Z 33010KT 14/M04 A3026 RMK A01 T01411041  RH  028%=      5-min Rain = 0
KLO1 192232Z 34009KT 14/M04 A3026 RMK A01 T01421040  RH  028%=      5-min Rain = 0
KLO1 192233Z 34011KT 14/M04 A3026 RMK A01 T01431039  RH  028%=      5-min Rain = 0
KLO1 192234Z 34011KT 14/M04 A3026 RMK A01 T01431040  RH  028%=      5-min Rain = 0
KLO1 192235Z 34012KT 14/M04 A3026 RMK A01 T01411041  RH  028%=      5-min Rain = 0
KLO1 192236Z 33012KT 14/M04 A3026 RMK A01 T01411041  RH  028%=      5-min Rain = 0
KLO1 192237Z 33011KT 14/M04 A3026 RMK A01 T01421041  RH  028%=      5-min Rain = 0
KLO1 192238Z 34012KT 14/M04 A3026 RMK A01 T01431039  RH  028%=      5-min Rain = 0
KLO1 192239Z 35013KT 14/M04 A3026 RMK A01 T01431042  RH  028%=      5-min Rain = 0
KLO1 192240Z 34013KT 14/M04 A3026 RMK A01 T01411043  RH  028%=      5-min Rain = 0
KLO1 192241Z 35011KT 14/M04 A3026 RMK A01 T01401043  RH  028%=      5-min Rain = 0
KLO1 192242Z 34013KT 14/M04 A3026 RMK A01 T01401042  RH  028%=      5-min Rain = 0
KLO1 192243Z 33012KT 14/M04 A3026 RMK A01 T01401042  RH  028%=      5-min Rain = 0
KLO1 192244Z 34012KT 14/M04 A3026 RMK A01 T01391042  RH  028%=      5-min Rain = 0
KLO1 192245Z 33015KT 14/M04 A3026 RMK A01 T01391042  RH  028%=      5-min Rain = 0
KLO1 192246Z 34013KT 14/M04 A3026 RMK A01 T01401043  RH  028%=      5-min Rain = 0
KLO1 192247Z 35014KT 14/M04 A3026 RMK A01 T01401043  RH  028%=      5-min Rain = 0
KLO1 192248Z 34014KT 14/M04 A3026 RMK A01 T01401043  RH  028%=      5-min Rain = 0
KLO1 192249Z 34011KT 14/M04 A3026 RMK A01 T01401043  RH  028%=      5-min Rain = 0
KLO1 192250Z 35011KT 14/M04 A3026 RMK A01 T01401042  RH  028%=      5-min Rain = 0
KLO1 192251Z 35012KT 14/M04 A3026 RMK A01 T01401043  RH  028%=      5-min Rain = 0
KLO1 192252Z 34013KT 14/M04 A3026 RMK A01 T01401043  RH  028%=      5-min Rain = 0
KLO1 192253Z 34014KT 14/M04 A3026 RMK A01 T01401043  RH  028%=      5-min Rain = 0
KLO1 192254Z 33012KT 14/M04 A3026 RMK A01 T01391044  RH  028%=      5-min Rain = 0
KLO1 192255Z 34013KT 14/M04 A3026 RMK A01 T01391042  RH  028%=      5-min Rain = 0
KLO1 192256Z 34011KT 14/M04 A3026 RMK A01 T01391039  RH  029%=      5-min Rain = 0
KLO1 192257Z 35010KT 14/M04 A3027 RMK A01 T01391040  RH  029%=      5-min Rain = 0
KLO1 192258Z 36010G15KT 14/M04 A3027 RMK A01 T01391039  RH  029%=      5-min Rain = 0
KLO1 192259Z 36010KT 14/M04 A3027 RMK A01 T01391039  RH  029%=      5-min Rain = 0
KLO1 192300Z 35011KT 14/M04 A3027 RMK A01 T01391039  RH  029%=      5-min Rain = 0
KLO1 192301Z 34011KT 14/M04 A3027 RMK A01 T01381039  RH  029%=      5-min Rain = 0
KLO1 192302Z 35009KT 14/M04 A3027 RMK A01 T01381039  RH  029%=      5-min Rain = 0
KLO1 192303Z 36007KT 14/M04 A3027 RMK A01 T01381039  RH  029%=      5-min Rain = 0
KLO1 192304Z 35010KT 14/M04 A3027 RMK A01 T01391038  RH  029%=      5-min Rain = 0
KLO1 192305Z 36009KT 14/M04 A3027 RMK A01 T01391039  RH  029%=      5-min Rain = 0
KLO1 192306Z 36009KT 14/M04 A3027 RMK A01 T01381038  RH  029%=      5-min Rain = 0
KLO1 192307Z 35009KT 14/M04 A3027 RMK A01 T01381038  RH  029%=      5-min Rain = 0
KLO1 192308Z 00010KT 14/M04 A3027 RMK A01 T01371038  RH  030%=      5-min Rain = 0
KLO1 192309Z 01011KT 14/M04 A3027 RMK A01 T01371038  RH  029%=      5-min Rain = 0
KLO1 192310Z 01011KT 14/M04 A3027 RMK A01 T01361039  RH  029%=      5-min Rain = 0
KLO1 192311Z 01012KT 14/M04 A3027 RMK A01 T01361040  RH  029%=      5-min Rain = 0
KLO1 192312Z 01011KT 14/M04 A3027 RMK A01 T01361040  RH  029%=      5-min Rain = 0
KLO1 192313Z 01011KT 14/M04 A3027 RMK A01 T01361040  RH  029%=      5-min Rain = 0
KLO1 192314Z 00010KT 14/M04 A3027 RMK A01 T01351040  RH  029%=      5-min Rain = 0
KLO1 192315Z 01012KT 14/M04 A3027 RMK A01 T01351040  RH  029%=      5-min Rain = 0
KLO1 192316Z 01013KT 14/M04 A3027 RMK A01 T01351040  RH  029%=      5-min Rain = 0
KLO1 192317Z 36009KT 14/M04 A3027 RMK A01 T01351041  RH  029%=      5-min Rain = 0
KLO1 192318Z 35007KT 14/M04 A3027 RMK A01 T01351040  RH  029%=      5-min Rain = 0
KLO1 192319Z 34008KT 14/M04 A3027 RMK A01 T01351040  RH  029%=      5-min Rain = 0
KLO1 192320Z 35009KT 14/M04 A3027 RMK A01 T01351039  RH  030%=      5-min Rain = 0
KLO1 192321Z 34010KT 14/M04 A3027 RMK A01 T01351039  RH  030%=      5-min Rain = 0
KLO1 192322Z 34009KT 14/M04 A3027 RMK A01 T01351039  RH  030%=      5-min Rain = 0
KLO1 192323Z 34008KT 14/M04 A3027 RMK A01 T01351038  RH  030%=      5-min Rain = 0
KLO1 192324Z 36007KT 14/M04 A3027 RMK A01 T01351039  RH  030%=      5-min Rain = 0
KLO1 192325Z 35006KT 14/M04 A3027 RMK A01 T01351038  RH  030%=      5-min Rain = 0
KLO1 192326Z 35008KT 13/M04 A3027 RMK A01 T01341038  RH  030%=      5-min Rain = 0
KLO1 192327Z 35007KT 13/M04 A3027 RMK A01 T01341039  RH  030%=      5-min Rain = 0
KLO1 192328Z 35006KT 13/M04 A3027 RMK A01 T01341039  RH  030%=      5-min Rain = 0
KLO1 192329Z 35006KT 13/M04 A3027 RMK A01 T01341039  RH  030%=      5-min Rain = 0
KLO1 192330Z 35009KT 13/M04 A3027 RMK A01 T01341038  RH  030%=      5-min Rain = 0
KLO1 192331Z 35010KT 13/M04 A3027 RMK A01 T01331039  RH  030%=      5-min Rain = 0
KLO1 192332Z 35008KT 13/M04 A3027 RMK A01 T01331039  RH  030%=      5-min Rain = 0
KLO1 192333Z 00008KT 13/M04 A3027 RMK A01 T01331039  RH  030%=      5-min Rain = 0
KLO1 192334Z 36007KT 13/M04 A3027 RMK A01 T01331039  RH  030%=      5-min Rain = 0
KLO1 192335Z 00008KT 13/M04 A3027 RMK A01 T01321039  RH  030%=      5-min Rain = 0
KLO1 192336Z 36007KT 13/M04 A3027 RMK A01 T01321039  RH  030%=      5-min Rain = 0
KLO1 192337Z 36007KT 13/M04 A3027 RMK A01 T01311039  RH  030%=      5-min Rain = 0
KLO1 192338Z 34008KT 13/M04 A3027 RMK A01 T01311038  RH  031%=      5-min Rain = 0
KLO1 192339Z 00006KT 13/M04 A3027 RMK A01 T01311039  RH  031%=      5-min Rain = 0
KLO1 192340Z 36006KT 13/M04 A3027 RMK A01 T01301039  RH  031%=      5-min Rain = 0
KLO1 192341Z 00007KT 13/M04 A3027 RMK A01 T01301038  RH  031%=      5-min Rain = 0
KLO1 192342Z 36008KT 13/M04 A3027 RMK A01 T01291038  RH  031%=      5-min Rain = 0
KLO1 192343Z 00008KT 13/M04 A3027 RMK A01 T01291039  RH  031%=      5-min Rain = 0
KLO1 192344Z 00009KT 13/M04 A3027 RMK A01 T01291039  RH  031%=      5-min Rain = 0
KLO1 192345Z 36007KT 13/M04 A3027 RMK A01 T01291040  RH  031%=      5-min Rain = 0
KLO1 192346Z 36005KT 13/M04 A3027 RMK A01 T01291039  RH  031%=      5-min Rain = 0
KLO1 192347Z 36005KT 13/M04 A3027 RMK A01 T01281038  RH  031%=      5-min Rain = 0
KLO1 192348Z 00007KT 13/M04 A3027 RMK A01 T01271038  RH  032%=      5-min Rain = 0
KLO1 192349Z 00007KT 13/M04 A3027 RMK A01 T01261039  RH  031%=      5-min Rain = 0
KLO1 192350Z 00006KT 13/M04 A3027 RMK A01 T01261039  RH  031%=      5-min Rain = 0
KLO1 192351Z 00005KT 13/M04 A3027 RMK A01 T01261039  RH  032%=      5-min Rain = 0
KLO1 192352Z 01005KT 13/M04 A3026 RMK A01 T01251038  RH  032%=      5-min Rain = 0
KLO1 192353Z 01006KT 12/M04 A3026 RMK A01 T01231039  RH  032%=      5-min Rain = 0
KLO1 192354Z 01006KT 12/M04 A3026 RMK A01 T01221039  RH  032%=      5-min Rain = 0
KLO1 192355Z 01006KT 12/M04 A3026 RMK A01 T01221038  RH  033%=      5-min Rain = 0
KLO1 192356Z 01006KT 12/M04 A3026 RMK A01 T01211038  RH  033%=      5-min Rain = 0
KLO1 192357Z 01006KT 12/M04 A3026 RMK A01 T01201038  RH  033%=      5-min Rain = 0
KLO1 192358Z 02006KT 12/M04 A3026 RMK A01 T01191038  RH  033%=      5-min Rain = 0
KLO1 192359Z 02005KT 12/M04 A3026 RMK A01 T01171038  RH  033%=      5-min Rain = 0
KLO1 200000Z 02006KT 12/M04 A3026 RMK A01 T01161037  RH  034%=      5-min Rain = 0
KLO1 200001Z 02006KT 11/M04 A3026 RMK A01 T01141038  RH  034%=      5-min Rain = 0
KLO1 200002Z 02006KT 11/M04 A3026 RMK A01 T01131038  RH  035%=      5-min Rain = 0
KLO1 200003Z 02006KT 11/M04 A3026 RMK A01 T01121037  RH  035%=      5-min Rain = 0
KLO1 200004Z 02006KT 11/M04 A3026 RMK A01 T01111037  RH  035%=      5-min Rain = 0
KLO1 200005Z 02006KT 11/M04 A3026 RMK A01 T01101037  RH  035%=      5-min Rain = 0
KLO1 200006Z 01006KT 11/M04 A3026 RMK A01 T01091037  RH  036%=      5-min Rain = 0
KLO1 200007Z 01006KT 11/M04 A3026 RMK A01 T01081037  RH  036%=      5-min Rain = 0
KLO1 200008Z 01006KT 11/M04 A3026 RMK A01 T01081036  RH  036%=      5-min Rain = 0
KLO1 200009Z 01006KT 11/M04 A3026 RMK A01 T01071037  RH  036%=      5-min Rain = 0
KLO1 200010Z 01006KT 11/M04 A3026 RMK A01 T01071036  RH  036%=      5-min Rain = 0
KLO1 200011Z 01006KT 11/M04 A3026 RMK A01 T01061036  RH  037%=      5-min Rain = 0
KLO1 200012Z 01005KT 11/M04 A3026 RMK A01 T01061036  RH  037%=      5-min Rain = 0
KLO1 200013Z 01005KT 11/M04 A3026 RMK A01 T01061036  RH  037%=      5-min Rain = 0
KLO1 200014Z 01005KT 11/M04 A3026 RMK A01 T01051036  RH  037%=      5-min Rain = 0
KLO1 200015Z 00004KT 11/M04 A3026 RMK A01 T01051036  RH  037%=      5-min Rain = 0
KLO1 200016Z 01005KT 11/M04 A3026 RMK A01 T01061035  RH  037%=      5-min Rain = 0
KLO1 200017Z 00004KT 11/M04 A3026 RMK A01 T01061035  RH  037%=      5-min Rain = 0
KLO1 200018Z 00004KT 11/M04 A3026 RMK A01 T01061035  RH  037%=      5-min Rain = 0
KLO1 200019Z 36004KT 11/M04 A3026 RMK A01 T01061035  RH  037%=      5-min Rain = 0
KLO1 200020Z 36004KT 11/M03 A3026 RMK A01 T01061034  RH  037%=      5-min Rain = 0
KLO1 200021Z 00004KT 11/M04 A3026 RMK A01 T01071036  RH  037%=      5-min Rain = 0
KLO1 200022Z 00004KT 11/M04 A3026 RMK A01 T01081035  RH  037%=      5-min Rain = 0
KLO1 200023Z 00004KT 11/M04 A3026 RMK A01 T01071036  RH  036%=      5-min Rain = 0
KLO1 200024Z 00003KT 11/M04 A3026 RMK A01 T01061037  RH  037%=      5-min Rain = 0
KLO1 200025Z 01004KT 11/M04 A3026 RMK A01 T01051037  RH  037%=      5-min Rain = 0
KLO1 200026Z 01003KT 10/M04 A3026 RMK A01 T01041037  RH  037%=      5-min Rain = 0
KLO1 200027Z 00003KT 10/M04 A3027 RMK A01 T01041037  RH  037%=      5-min Rain = 0
KLO1 200028Z 01003KT 10/M04 A3027 RMK A01 T01041037  RH  037%=      5-min Rain = 0
KLO1 200029Z 01003KT 10/M04 A3027 RMK A01 T01041037  RH  037%=      5-min Rain = 0
KLO1 200030Z 01003KT 10/M04 A3027 RMK A01 T01041036  RH  037%=      5-min Rain = 0
KLO1 200031Z 02004KT 10/M04 A3027 RMK A01 T01041036  RH  037%=      5-min Rain = 0
KLO1 200032Z 02004KT 10/M04 A3027 RMK A01 T01041036  RH  037%=      5-min Rain = 0
KLO1 200033Z 02003KT 11/M04 A3027 RMK A01 T01051035  RH  037%=      5-min Rain = 0
KLO1 200034Z 02003KT 10/M04 A3027 RMK A01 T01041035  RH  037%=      5-min Rain = 0
KLO1 200035Z 03003KT 10/M04 A3027 RMK A01 T01041036  RH  037%=      5-min Rain = 0
KLO1 200036Z 03003KT 10/M04 A3027 RMK A01 T01031036  RH  037%=      5-min Rain = 0
KLO1 200037Z 04003KT 10/M04 A3027 RMK A01 T01021037  RH  037%=      5-min Rain = 0
KLO1 200038Z 04003KT 10/M04 A3027 RMK A01 T01011038  RH  037%=      5-min Rain = 0
KLO1 200039Z 04003KT 10/M04 A3027 RMK A01 T01011038  RH  037%=      5-min Rain = 0
KLO1 200040Z 03003KT 10/M04 A3027 RMK A01 T01011038  RH  037%=      5-min Rain = 0
KLO1 200041Z 04003KT 10/M04 A3027 RMK A01 T01011038  RH  037%=      5-min Rain = 0
KLO1 200042Z 04003KT 10/M04 A3027 RMK A01 T01001039  RH  038%=      5-min Rain = 0
KLO1 200043Z 04003KT 10/M04 A3027 RMK A01 T00991038  RH  038%=      5-min Rain = 0
KLO1 200044Z 04003KT 10/M04 A3027 RMK A01 T00981038  RH  038%=      5-min Rain = 0
KLO1 200045Z 04003KT 10/M04 A3027 RMK A01 T00981038  RH  038%=      5-min Rain = 0
KLO1 200046Z 04003KT 10/M04 A3027 RMK A01 T00971038  RH  038%=      5-min Rain = 0
KLO1 200047Z 04003KT 10/M04 A3027 RMK A01 T00971038  RH  038%=      5-min Rain = 0
KLO1 200048Z 04003KT 10/M04 A3027 RMK A01 T00971038  RH  039%=      5-min Rain = 0
KLO1 200049Z 04003KT 10/M04 A3028 RMK A01 T00961038  RH  039%=      5-min Rain = 0
KLO1 200050Z 04003KT 10/M04 A3027 RMK A01 T00961038  RH  039%=      5-min Rain = 0
KLO1 200051Z 04003KT 10/M04 A3027 RMK A01 T00951038  RH  039%=      5-min Rain = 0
KLO1 200052Z 03003KT 10/M04 A3027 RMK A01 T00951038  RH  039%=      5-min Rain = 0
KLO1 200053Z 03003KT 09/M04 A3027 RMK A01 T00941039  RH  039%=      5-min Rain = 0
KLO1 200054Z 03003KT 09/M04 A3027 RMK A01 T00931039  RH  039%=      5-min Rain = 0
KLO1 200055Z 03004KT 09/M04 A3027 RMK A01 T00921039  RH  039%=      5-min Rain = 0
KLO1 200056Z 03004KT 09/M04 A3027 RMK A01 T00921039  RH  040%=      5-min Rain = 0
KLO1 200057Z 03003KT 09/M04 A3027 RMK A01 T00911039  RH  040%=      5-min Rain = 0
KLO1 200058Z 03003KT 09/M04 A3027 RMK A01 T00911039  RH  040%=      5-min Rain = 0
KLO1 200059Z 03003KT 09/M04 A3027 RMK A01 T00911039  RH  040%=      5-min Rain = 0
KLO1 200100Z 03003KT 09/M04 A3027 RMK A01 T00901039  RH  040%=      5-min Rain = 0
KLO1 200101Z 03003KT 09/M04 A3027 RMK A01 T00901040  RH  040%=      5-min Rain = 0
KLO1 200102Z 03003KT 09/M04 A3027 RMK A01 T00891040  RH  040%=      5-min Rain = 0
KLO1 200103Z 03003KT 09/M04 A3028 RMK A01 T00891040  RH  040%=      5-min Rain = 0
KLO1 200104Z 03003KT 09/M04 A3028 RMK A01 T00881040  RH  040%=      5-min Rain = 0
KLO1 200105Z 03003KT 09/M04 A3028 RMK A01 T00881040  RH  040%=      5-min Rain = 0
KLO1 200106Z 03003KT 09/M04 A3028 RMK A01 T00881040  RH  040%=      5-min Rain = 0
KLO1 200107Z 04002KT 09/M04 A3028 RMK A01 T00871041  RH  040%=      5-min Rain = 0
KLO1 200108Z 04002KT 09/M04 A3028 RMK A01 T00871042  RH  040%=      5-min Rain = 0
KLO1 200109Z 04002KT 09/M04 A3028 RMK A01 T00861042  RH  040%=      5-min Rain = 0
KLO1 200110Z 04002KT 09/M04 A3028 RMK A01 T00851041  RH  041%=      5-min Rain = 0
KLO1 200111Z 04002KT 09/M04 A3028 RMK A01 T00851040  RH  041%=      5-min Rain = 0
KLO1 200112Z 05002KT 09/M04 A3028 RMK A01 T00851040  RH  041%=      5-min Rain = 0
KLO1 200113Z 05002KT 09/M04 A3028 RMK A01 T00861039  RH  041%=      5-min Rain = 0
KLO1 200114Z 06002KT 09/M04 A3028 RMK A01 T00871038  RH  041%=      5-min Rain = 0
KLO1 200115Z 06002KT 09/M04 A3028 RMK A01 T00881038  RH  041%=      5-min Rain = 0
KLO1 200116Z 06002KT 09/M04 A3028 RMK A01 T00891038  RH  041%=      5-min Rain = 0
KLO1 200117Z 06002KT 09/M04 A3028 RMK A01 T00891038  RH  040%=      5-min Rain = 0
KLO1 200118Z 06002KT 09/M04 A3028 RMK A01 T00891038  RH  040%=      5-min Rain = 0
KLO1 200119Z 06002KT 09/M04 A3028 RMK A01 T00891038  RH  041%=      5-min Rain = 0
KLO1 200120Z 05003KT 09/M04 A3028 RMK A01 T00881039  RH  041%=      5-min Rain = 0
KLO1 200121Z 05003KT 09/M04 A3028 RMK A01 T00881039  RH  041%=      5-min Rain = 0
KLO1 200122Z 06003KT 09/M04 A3028 RMK A01 T00881039  RH  041%=      5-min Rain = 0
KLO1 200123Z 06002KT 09/M04 A3028 RMK A01 T00881039  RH  040%=      5-min Rain = 0
KLO1 200124Z 05002KT 09/M04 A3028 RMK A01 T00891039  RH  040%=      5-min Rain = 0
KLO1 200125Z 05003KT 09/M04 A3028 RMK A01 T00891039  RH  040%=      5-min Rain = 0
KLO1 200126Z 05003KT 09/M04 A3028 RMK A01 T00901039  RH  040%=      5-min Rain = 0
KLO1 200127Z 05003KT 09/M04 A3028 RMK A01 T00901039  RH  040%=      5-min Rain = 0
KLO1 200128Z 05003KT 09/M04 A3028 RMK A01 T00901040  RH  040%=      5-min Rain = 0
KLO1 200129Z 05003KT 09/M04 A3028 RMK A01 T00901040  RH  040%=      5-min Rain = 0
KLO1 200130Z 04003KT 09/M04 A3028 RMK A01 T00901040  RH  040%=      5-min Rain = 0
KLO1 200131Z 05004KT 09/M04 A3028 RMK A01 T00901040  RH  040%=      5-min Rain = 0
KLO1 200132Z 04004KT 09/M04 A3028 RMK A01 T00891040  RH  040%=      5-min Rain = 0
KLO1 200133Z 04005KT 09/M04 A3028 RMK A01 T00881039  RH  040%=      5-min Rain = 0
KLO1 200134Z 04004KT 09/M04 A3028 RMK A01 T00871039  RH  041%=      5-min Rain = 0
KLO1 200135Z 04004KT 09/M04 A3028 RMK A01 T00851039  RH  041%=      5-min Rain = 0
KLO1 200136Z 04004KT 08/M04 A3028 RMK A01 T00831039  RH  042%=      5-min Rain = 0
KLO1 200137Z 05003KT 08/M04 A3028 RMK A01 T00821041  RH  042%=      5-min Rain = 0
KLO1 200138Z 05003KT 08/M04 A3028 RMK A01 T00811041  RH  042%=      5-min Rain = 0
KLO1 200139Z 06003KT 08/M04 A3028 RMK A01 T00801041  RH  042%=      5-min Rain = 0
KLO1 200140Z 06003KT 08/M04 A3028 RMK A01 T00791041  RH  042%=      5-min Rain = 0
KLO1 200141Z 06003KT 08/M04 A3028 RMK A01 T00781042  RH  042%=      5-min Rain = 0
KLO1 200142Z 06004KT 08/M04 A3028 RMK A01 T00771042  RH  043%=      5-min Rain = 0
KLO1 200143Z 07003KT 08/M04 A3028 RMK A01 T00761041  RH  043%=      5-min Rain = 0
KLO1 200144Z 06004KT 08/M04 A3028 RMK A01 T00761041  RH  043%=      5-min Rain = 0
KLO1 200145Z 06004KT 08/M04 A3028 RMK A01 T00761041  RH  043%=      5-min Rain = 0
KLO1 200146Z 06004KT 08/M04 A3028 RMK A01 T00761042  RH  043%=      5-min Rain = 0
KLO1 200147Z 06005KT 08/M04 A3029 RMK A01 T00751041  RH  043%=      5-min Rain = 0
KLO1 200148Z 06005KT 08/M04 A3029 RMK A01 T00751041  RH  043%=      5-min Rain = 0
KLO1 200149Z 06004KT 08/M04 A3029 RMK A01 T00751041  RH  043%=      5-min Rain = 0
KLO1 200150Z 06005KT 08/M04 A3029 RMK A01 T00751041  RH  044%=      5-min Rain = 0
KLO1 200151Z 06004KT 08/M04 A3029 RMK A01 T00751041  RH  044%=      5-min Rain = 0
KLO1 200152Z 06004KT 08/M04 A3029 RMK A01 T00751041  RH  044%=      5-min Rain = 0
KLO1 200153Z 06004KT 08/M04 A3029 RMK A01 T00751041  RH  044%=      5-min Rain = 0
KLO1 200154Z 06004KT 08/M04 A3029 RMK A01 T00751040  RH  044%=      5-min Rain = 0
KLO1 200155Z 07004KT 08/M04 A3029 RMK A01 T00751041  RH  044%=      5-min Rain = 0
KLO1 200156Z 07004KT 08/M04 A3029 RMK A01 T00761040  RH  044%=      5-min Rain = 0
KLO1 200157Z 07004KT 07/M04 A3029 RMK A01 T00741039  RH  044%=      5-min Rain = 0
KLO1 200158Z 07004KT 07/M04 A3029 RMK A01 T00731039  RH  045%=      5-min Rain = 0
KLO1 200159Z 07004KT 07/M04 A3029 RMK A01 T00731039  RH  045%=      5-min Rain = 0
KLO1 200200Z 08004KT 07/M04 A3029 RMK A01 T00731039  RH  045%=      5-min Rain = 0
KLO1 200201Z 08004KT 07/M04 A3029 RMK A01 T00731039  RH  045%=      5-min Rain = 0
KLO1 200202Z 08004KT 07/M04 A3029 RMK A01 T00731039  RH  045%=      5-min Rain = 0
KLO1 200203Z 08004KT 07/M04 A3029 RMK A01 T00731039  RH  045%=      5-min Rain = 0
KLO1 200204Z 08004KT 07/M04 A3029 RMK A01 T00731040  RH  045%=      5-min Rain = 0
KLO1 200205Z 07005KT 07/M04 A3029 RMK A01 T00721040  RH  045%=      5-min Rain = 0
KLO1 200206Z 07005KT 07/M04 A3029 RMK A01 T00721041  RH  045%=      5-min Rain = 0
KLO1 200207Z 07005KT 07/M04 A3029 RMK A01 T00711041  RH  045%=      5-min Rain = 0
KLO1 200208Z 07005KT 07/M04 A3029 RMK A01 T00711040  RH  045%=      5-min Rain = 0
KLO1 200209Z 07005KT 07/M04 A3029 RMK A01 T00721040  RH  045%=      5-min Rain = 0
KLO1 200210Z 07005KT 07/M04 A3029 RMK A01 T00721040  RH  045%=      5-min Rain = 0
KLO1 200211Z 07005KT 07/M04 A3029 RMK A01 T00721040  RH  045%=      5-min Rain = 0
KLO1 200212Z 07005KT 07/M04 A3029 RMK A01 T00711039  RH  045%=      5-min Rain = 0
KLO1 200213Z 08004KT 07/M04 A3029 RMK A01 T00691039  RH  046%=      5-min Rain = 0
KLO1 200214Z 08005KT 07/M04 A3029 RMK A01 T00681039  RH  046%=      5-min Rain = 0
KLO1 200215Z 08005KT 07/M04 A3029 RMK A01 T00661040  RH  047%=      5-min Rain = 0
KLO1 200216Z 08005KT 07/M04 A3029 RMK A01 T00661039  RH  047%=      5-min Rain = 0
KLO1 200217Z 08005KT 06/M04 A3029 RMK A01 T00641040  RH  047%=      5-min Rain = 0
KLO1 200218Z 08005KT 06/M04 A3029 RMK A01 T00631040  RH  048%=      5-min Rain = 0
KLO1 200219Z 08005KT 06/M04 A3029 RMK A01 T00621040  RH  048%=      5-min Rain = 0
KLO1 200220Z 08005KT 06/M04 A3029 RMK A01 T00611040  RH  048%=      5-min Rain = 0
KLO1 200221Z 08005KT 06/M04 A3029 RMK A01 T00601040  RH  049%=      5-min Rain = 0
KLO1 200222Z 08005KT 06/M04 A3029 RMK A01 T00591040  RH  049%=      5-min Rain = 0
KLO1 200223Z 08005KT 06/M04 A3029 RMK A01 T00571040  RH  050%=      5-min Rain = 0
KLO1 200224Z 08005KT 06/M04 A3029 RMK A01 T00551040  RH  050%=      5-min Rain = 0
KLO1 200225Z 08005KT 05/M04 A3029 RMK A01 T00531041  RH  051%=      5-min Rain = 0
KLO1 200226Z 09005KT 05/M04 A3029 RMK A01 T00511041  RH  051%=      5-min Rain = 0
KLO1 200227Z 09005KT 05/M04 A3029 RMK A01 T00491042  RH  052%=      5-min Rain = 0
KLO1 200228Z 09005KT 05/M04 A3029 RMK A01 T00471043  RH  052%=      5-min Rain = 0
KLO1 200229Z 09005KT 05/M04 A3029 RMK A01 T00451044  RH  053%=      5-min Rain = 0
KLO1 200230Z 09005KT 04/M04 A3029 RMK A01 T00431044  RH  053%=      5-min Rain = 0
KLO1 200231Z 09005KT 04/M04 A3029 RMK A01 T00411044  RH  054%=      5-min Rain = 0
KLO1 200232Z 09005KT 04/M04 A3029 RMK A01 T00401044  RH  054%=      5-min Rain = 0
KLO1 200233Z 09005KT 04/M04 A3028 RMK A01 T00391044  RH  055%=      5-min Rain = 0
KLO1 200234Z 10006KT 04/M04 A3028 RMK A01 T00381043  RH  055%=      5-min Rain = 0
KLO1 200235Z 10006KT 04/M04 A3028 RMK A01 T00371042  RH  056%=      5-min Rain = 0
KLO1 200236Z 09006KT 04/M04 A3028 RMK A01 T00371041  RH  056%=      5-min Rain = 0
KLO1 200237Z 09006KT 04/M04 A3028 RMK A01 T00371041  RH  057%=      5-min Rain = 0
KLO1 200238Z 09006KT 04/M04 A3028 RMK A01 T00381040  RH  057%=      5-min Rain = 0
KLO1 200239Z 09006KT 04/M04 A3028 RMK A01 T00371040  RH  057%=      5-min Rain = 0
KLO1 200240Z 09006KT 04/M04 A3028 RMK A01 T00381040  RH  057%=      5-min Rain = 0
KLO1 200241Z 08006KT 04/M04 A3028 RMK A01 T00401039  RH  056%=      5-min Rain = 0
KLO1 200242Z 09006KT 04/M04 A3028 RMK A01 T00421038  RH  056%=      5-min Rain = 0
KLO1 200243Z 09005KT 04/M04 A3028 RMK A01 T00431039  RH  055%=      5-min Rain = 0
KLO1 200244Z 09005KT 04/M04 A3028 RMK A01 T00431039  RH  055%=      5-min Rain = 0
KLO1 200245Z 09005KT 04/M04 A3028 RMK A01 T00431039  RH  055%=      5-min Rain = 0
KLO1 200246Z 09005KT 04/M04 A3028 RMK A01 T00431039  RH  055%=      5-min Rain = 0
KLO1 200247Z 09005KT 04/M04 A3028 RMK A01 T00421040  RH  055%=      5-min Rain = 0
KLO1 200248Z 10005KT 04/M04 A3029 RMK A01 T00421040  RH  055%=      5-min Rain = 0
KLO1 200249Z 10005KT 04/M04 A3029 RMK A01 T00411041  RH  055%=      5-min Rain = 0
KLO1 200250Z 10005KT 04/M04 A3029 RMK A01 T00401041  RH  056%=      5-min Rain = 0
KLO1 200251Z 11004KT 04/M04 A3029 RMK A01 T00401041  RH  056%=      5-min Rain = 0
KLO1 200252Z 12003KT 04/M04 A3029 RMK A01 T00381042  RH  056%=      5-min Rain = 0
KLO1 200253Z 12003KT 04/M04 A3029 RMK A01 T00361043  RH  056%=      5-min Rain = 0
KLO1 200254Z 14003KT 03/M04 A3029 RMK A01 T00341043  RH  057%=      5-min Rain = 0
KLO1 200255Z 14004KT 03/M04 A3029 RMK A01 T00331042  RH  058%=      5-min Rain = 0
KLO1 200256Z 13004KT 03/M04 A3029 RMK A01 T00321042  RH  058%=      5-min Rain = 0
KLO1 200257Z 15003KT 03/M04 A3029 RMK A01 T00321042  RH  058%=      5-min Rain = 0
KLO1 200258Z 15003KT 03/M04 A3029 RMK A01 T00321041  RH  059%=      5-min Rain = 0
KLO1 200259Z 14004KT 03/M04 A3029 RMK A01 T00311042  RH  059%=      5-min Rain = 0
KLO1 200300Z 14004KT 03/M04 A3029 RMK A01 T00311042  RH  059%=      5-min Rain = 0
KLO1 200301Z 14004KT 03/M04 A3029 RMK A01 T00311042  RH  059%=      5-min Rain = 0
KLO1 200302Z 14005KT 03/M04 A3029 RMK A01 T00331040  RH  059%=      5-min Rain = 0
KLO1 200303Z 14005KT 03/M04 A3029 RMK A01 T00341041  RH  058%=      5-min Rain = 0
KLO1 200304Z 14005KT 03/M04 A3029 RMK A01 T00341041  RH  058%=      5-min Rain = 0
KLO1 200305Z 14004KT 03/M04 A303 RMK A01 T00341041  RH  058%=      5-min Rain = 0
KLO1 200306Z 14004KT 03/M04 A303 RMK A01 T00341041  RH  058%=      5-min Rain = 0
KLO1 200307Z 14004KT 04/M04 A303 RMK A01 T00351041  RH  058%=      5-min Rain = 0
KLO1 200308Z 15004KT 04/M04 A303 RMK A01 T00351041  RH  058%=      5-min Rain = 0
KLO1 200309Z 15004KT 04/M04 A303 RMK A01 T00351041  RH  058%=      5-min Rain = 0
KLO1 200310Z 14004KT 04/M04 A303 RMK A01 T00351041  RH  058%=      5-min Rain = 0
KLO1 200311Z 14004KT 04/M04 A303 RMK A01 T00351041  RH  058%=      5-min Rain = 0
KLO1 200312Z 14003KT 03/M04 A303 RMK A01 T00341041  RH  058%=      5-min Rain = 0
KLO1 200313Z 14003KT 03/M04 A303 RMK A01 T00341041  RH  058%=      5-min Rain = 0
KLO1 200314Z 14003KT 03/M04 A303 RMK A01 T00341041  RH  058%=      5-min Rain = 0
KLO1 200315Z 13002KT 03/M04 A303 RMK A01 T00341041  RH  058%=      5-min Rain = 0
KLO1 200316Z 13003KT 03/M04 A303 RMK A01 T00331040  RH  058%=      5-min Rain = 0
KLO1 200317Z 13003KT 03/M04 A303 RMK A01 T00331040  RH  059%=      5-min Rain = 0
KLO1 200318Z 13003KT 03/M04 A303 RMK A01 T00331040  RH  059%=      5-min Rain = 0
KLO1 200319Z 13003KT 03/M04 A3031 RMK A01 T00341039  RH  059%=      5-min Rain = 0
KLO1 200320Z 14003KT 04/M04 A3031 RMK A01 T00351039  RH  059%=      5-min Rain = 0
KLO1 200321Z 14003KT 04/M04 A303 RMK A01 T00351039  RH  058%=      5-min Rain = 0
KLO1 200322Z 14003KT 04/M04 A303 RMK A01 T00361038  RH  058%=      5-min Rain = 0
KLO1 200323Z 14003KT 04/M04 A303 RMK A01 T00371038  RH  058%=      5-min Rain = 0
KLO1 200324Z 14003KT 04/M04 A303 RMK A01 T00371039  RH  058%=      5-min Rain = 0
KLO1 200325Z 15003KT 04/M04 A303 RMK A01 T00371039  RH  058%=      5-min Rain = 0
KLO1 200326Z 16003KT 04/M04 A3031 RMK A01 T00371039  RH  058%=      5-min Rain = 0
KLO1 200327Z 16003KT 04/M04 A3031 RMK A01 T00361040  RH  058%=      5-min Rain = 0
KLO1 200328Z 17004KT 04/M04 A3031 RMK A01 T00351040  RH  058%=      5-min Rain = 0
KLO1 200329Z 18004KT 03/M04 A3031 RMK A01 T00331041  RH  058%=      5-min Rain = 0
KLO1 200330Z 18004KT 03/M04 A3031 RMK A01 T00321041  RH  059%=      5-min Rain = 0
KLO1 200331Z 17004KT 03/M04 A3031 RMK A01 T00311041  RH  059%=      5-min Rain = 0
KLO1 200332Z 17004KT 03/M04 A3031 RMK A01 T00301041  RH  060%=      5-min Rain = 0
KLO1 200333Z 17004KT 03/M04 A3031 RMK A01 T00291041  RH  060%=      5-min Rain = 0
KLO1 200334Z 17004KT 03/M04 A3031 RMK A01 T00281041  RH  061%=      5-min Rain = 0
KLO1 200335Z 17003KT 03/M04 A3031 RMK A01 T00271041  RH  061%=      5-min Rain = 0
KLO1 200336Z 17003KT 03/M04 A3032 RMK A01 T00271040  RH  062%=      5-min Rain = 0
KLO1 200337Z 17003KT 03/M04 A3032 RMK A01 T00261039  RH  062%=      5-min Rain = 0
KLO1 200338Z 17002KT 03/M04 A3032 RMK A01 T00261039  RH  062%=      5-min Rain = 0
KLO1 200339Z 17002KT 03/M04 A3032 RMK A01 T00251038  RH  063%=      5-min Rain = 0
KLO1 200340Z 18002KT 03/M04 A3032 RMK A01 T00251038  RH  063%=      5-min Rain = 0
KLO1 200341Z 18003KT 02/M04 A3032 RMK A01 T00241038  RH  064%=      5-min Rain = 0
KLO1 200342Z 18003KT 02/M04 A3032 RMK A01 T00241037  RH  064%=      5-min Rain = 0
KLO1 200343Z 18004KT 02/M04 A3032 RMK A01 T00241037  RH  064%=      5-min Rain = 0
KLO1 200344Z 19004KT 02/M04 A3032 RMK A01 T00231037  RH  064%=      5-min Rain = 0
KLO1 200345Z 19005KT 02/M04 A3032 RMK A01 T00241037  RH  064%=      5-min Rain = 0
KLO1 200346Z 19005KT 03/M04 A3032 RMK A01 T00251037  RH  064%=      5-min Rain = 0
KLO1 200347Z 19005KT 03/M04 A3033 RMK A01 T00251038  RH  063%=      5-min Rain = 0
KLO1 200348Z 19004KT 03/M04 A3033 RMK A01 T00251038  RH  063%=      5-min Rain = 0
KLO1 200349Z 19004KT 03/M04 A3033 RMK A01 T00251038  RH  063%=      5-min Rain = 0
KLO1 200350Z 18003KT 02/M04 A3033 RMK A01 T00241038  RH  063%=      5-min Rain = 0
KLO1 200351Z 18003KT 02/M04 A3033 RMK A01 T00241039  RH  063%=      5-min Rain = 0
KLO1 200352Z 18002KT 02/M04 A3033 RMK A01 T00221039  RH  064%=      5-min Rain = 0
KLO1 200353Z 19002KT 02/M04 A3033 RMK A01 T00211040  RH  064%=      5-min Rain = 0
KLO1 200354Z 20001KT 02/M04 A3033 RMK A01 T00201039  RH  065%=      5-min Rain = 0
KLO1 200355Z 21002KT 02/M04 A3033 RMK A01 T00201038  RH  065%=      5-min Rain = 0
KLO1 200356Z 22002KT 02/M04 A3033 RMK A01 T00211037  RH  066%=      5-min Rain = 0
KLO1 200357Z 23002KT 02/M04 A3033 RMK A01 T00211036  RH  066%=      5-min Rain = 0
KLO1 200358Z 23002KT 02/M04 A3033 RMK A01 T00221035  RH  066%=      5-min Rain = 0
KLO1 200359Z 22003KT 02/M04 A3033 RMK A01 T00221035  RH  066%=      5-min Rain = 0
KLO1 200400Z 22003KT 02/M04 A3033 RMK A01 T00221036  RH  066%=      5-min Rain = 0
KLO1 200401Z 21003KT 02/M04 A3033 RMK A01 T00241036  RH  065%=      5-min Rain = 0
KLO1 200402Z 21003KT 02/M04 A3033 RMK A01 T00231037  RH  064%=      5-min Rain = 0
KLO1 200403Z 21003KT 02/M04 A3033 RMK A01 T00231038  RH  064%=      5-min Rain = 0
KLO1 200404Z 20002KT 02/M04 A3033 RMK A01 T00231038  RH  064%=      5-min Rain = 0
KLO1 200405Z 20002KT 02/M04 A3033 RMK A01 T00241038  RH  064%=      5-min Rain = 0
KLO1 200406Z 20002KT 03/M04 A3033 RMK A01 T00261036  RH  064%=      5-min Rain = 0
KLO1 200407Z 19002KT 03/M04 A3033 RMK A01 T00271037  RH  063%=      5-min Rain = 0
KLO1 200408Z 19002KT 03/M04 A3033 RMK A01 T00271039  RH  062%=      5-min Rain = 0
KLO1 200409Z 19003KT 03/M04 A3033 RMK A01 T00271039  RH  062%=      5-min Rain = 0
KLO1 200410Z 18004KT 03/M04 A3032 RMK A01 T00271039  RH  062%=      5-min Rain = 0
KLO1 200411Z 19004KT 03/M04 A3032 RMK A01 T00251041  RH  062%=      5-min Rain = 0
KLO1 200412Z 19004KT 02/M05 A3032 RMK A01 T00201045  RH  062%=      5-min Rain = 0
KLO1 200413Z 18005KT 02/M05 A3032 RMK A01 T00171046  RH  063%=      5-min Rain = 0
KLO1 200414Z 18005KT 01/M05 A3032 RMK A01 T00141046  RH  064%=      5-min Rain = 0
KLO1 200415Z 18005KT 01/M05 A3031 RMK A01 T00111046  RH  066%=      5-min Rain = 0
KLO1 200416Z 18004KT 01/M05 A3031 RMK A01 T00101045  RH  067%=      5-min Rain = 0
KLO1 200417Z 17004KT 01/M04 A3031 RMK A01 T00101044  RH  067%=      5-min Rain = 0
KLO1 200418Z 16004KT 01/M04 A3031 RMK A01 T00101043  RH  068%=      5-min Rain = 0
KLO1 200419Z 15005KT 01/M04 A303 RMK A01 T00101042  RH  068%=      5-min Rain = 0
KLO1 200420Z 15005KT 01/M04 A303 RMK A01 T00101041  RH  069%=      5-min Rain = 0
KLO1 200421Z 15005KT 01/M04 A303 RMK A01 T00111041  RH  069%=      5-min Rain = 0
KLO1 200422Z 15005KT 01/M04 A3031 RMK A01 T00091042  RH  069%=      5-min Rain = 0
KLO1 200423Z 15004KT 01/M04 A3031 RMK A01 T00091042  RH  069%=      5-min Rain = 0
KLO1 200424Z 15005KT 01/M04 A3031 RMK A01 T00091042  RH  069%=      5-min Rain = 0
KLO1 200425Z 15005KT 01/M04 A3031 RMK A01 T00081042  RH  069%=      5-min Rain = 0
KLO1 200426Z 14006KT 01/M04 A3031 RMK A01 T00081042  RH  069%=      5-min Rain = 0
KLO1 200427Z 14006KT 01/M04 A3031 RMK A01 T00081041  RH  070%=      5-min Rain = 0
KLO1 200428Z 14006KT 01/M04 A3031 RMK A01 T00081041  RH  070%=      5-min Rain = 0
KLO1 200429Z 14006KT 01/M04 A3031 RMK A01 T00071041  RH  070%=      5-min Rain = 0
KLO1 200430Z 14006KT 01/M04 A3031 RMK A01 T00071041  RH  070%=      5-min Rain = 0
KLO1 200431Z 14007KT 01/M04 A3031 RMK A01 T00081040  RH  070%=      5-min Rain = 0
KLO1 200432Z 13007KT 01/M04 A303 RMK A01 T00081040  RH  070%=      5-min Rain = 0
KLO1 200433Z 13007KT 01/M04 A303 RMK A01 T00101039  RH  070%=      5-min Rain = 0
KLO1 200434Z 12007KT 01/M04 A303 RMK A01 T00111038  RH  070%=      5-min Rain = 0
KLO1 200435Z 12007KT 01/M04 A3031 RMK A01 T00121038  RH  069%=      5-min Rain = 0
KLO1 200436Z 11007KT 01/M04 A3031 RMK A01 T00131037  RH  069%=      5-min Rain = 0
KLO1 200437Z 11006KT 01/M04 A3031 RMK A01 T00131037  RH  069%=      5-min Rain = 0
KLO1 200438Z 11006KT 01/M04 A3031 RMK A01 T00141037  RH  069%=      5-min Rain = 0
KLO1 200439Z 11006KT 01/M04 A3031 RMK A01 T00141037  RH  069%=      5-min Rain = 0
KLO1 200440Z 11006KT 02/M04 A3031 RMK A01 T00151037  RH  069%=      5-min Rain = 0
KLO1 200441Z 12006KT 02/M04 A3031 RMK A01 T00161036  RH  068%=      5-min Rain = 0
KLO1 200442Z 12005KT 02/M04 A3031 RMK A01 T00171037  RH  068%=      5-min Rain = 0
KLO1 200443Z 12005KT 02/M04 A3031 RMK A01 T00171037  RH  067%=      5-min Rain = 0
KLO1 200444Z 12006KT 02/M04 A3031 RMK A01 T00171037  RH  067%=      5-min Rain = 0
KLO1 200445Z 12006KT 02/M04 A303 RMK A01 T00171038  RH  067%=      5-min Rain = 0
KLO1 200446Z 12006KT 02/M04 A303 RMK A01 T00171038  RH  067%=      5-min Rain = 0
KLO1 200447Z 13006KT 02/M04 A303 RMK A01 T00161039  RH  067%=      5-min Rain = 0
KLO1 200448Z 13006KT 02/M04 A303 RMK A01 T00151040  RH  067%=      5-min Rain = 0
KLO1 200449Z 13007KT 01/M04 A303 RMK A01 T00131041  RH  067%=      5-min Rain = 0
KLO1 200450Z 13008KT 01/M04 A303 RMK A01 T00121042  RH  068%=      5-min Rain = 0
KLO1 200451Z 12008KT 01/M04 A303 RMK A01 T00111042  RH  068%=      5-min Rain = 0
KLO1 200452Z 12008KT 01/M04 A303 RMK A01 T00101041  RH  069%=      5-min Rain = 0
KLO1 200453Z 12008KT 01/M04 A303 RMK A01 T00111039  RH  069%=      5-min Rain = 0
KLO1 200454Z 12008KT 01/M04 A303 RMK A01 T00121039  RH  069%=      5-min Rain = 0
KLO1 200455Z 12007KT 01/M04 A303 RMK A01 T00131038  RH  069%=      5-min Rain = 0
KLO1 200456Z 12007KT 01/M04 A303 RMK A01 T00141038  RH  068%=      5-min Rain = 0
KLO1 200457Z 12007KT 02/M04 A303 RMK A01 T00151038  RH  068%=      5-min Rain = 0
KLO1 200458Z 12007KT 02/M04 A303 RMK A01 T00151038  RH  068%=      5-min Rain = 0
KLO1 200459Z 12007KT 02/M04 A303 RMK A01 T00161038  RH  067%=      5-min Rain = 0
KLO1 200500Z 12007KT 02/M04 A303 RMK A01 T00161038  RH  067%=      5-min Rain = 0
KLO1 200501Z 12007KT 02/M04 A303 RMK A01 T00161038  RH  067%=      5-min Rain = 0
KLO1 200502Z 12007KT 02/M04 A303 RMK A01 T00161038  RH  067%=      5-min Rain = 0
KLO1 200503Z 12006KT 02/M04 A303 RMK A01 T00171038  RH  067%=      5-min Rain = 0
KLO1 200504Z 12006KT 02/M04 A3031 RMK A01 T00161038  RH  067%=      5-min Rain = 0
KLO1 200505Z 12006KT 02/M04 A3031 RMK A01 T00161039  RH  067%=      5-min Rain = 0
KLO1 200506Z 12005KT 02/M04 A3031 RMK A01 T00151039  RH  067%=      5-min Rain = 0
KLO1 200507Z 12005KT 01/M04 A3031 RMK A01 T00141039  RH  068%=      5-min Rain = 0
KLO1 200508Z 12005KT 01/M04 A3031 RMK A01 T00141039  RH  068%=      5-min Rain = 0
KLO1 200509Z 12005KT 01/M04 A3031 RMK A01 T00131040  RH  068%=      5-min Rain = 0
KLO1 200510Z 12005KT 01/M04 A3031 RMK A01 T00121040  RH  068%=      5-min Rain = 0
KLO1 200511Z 13005KT 01/M04 A3031 RMK A01 T00121040  RH  068%=      5-min Rain = 0
KLO1 200512Z 12005KT 01/M04 A3031 RMK A01 T00121040  RH  069%=      5-min Rain = 0
KLO1 200513Z 12005KT 01/M04 A3032 RMK A01 T00121039  RH  069%=      5-min Rain = 0
KLO1 200514Z 12005KT 01/M04 A3031 RMK A01 T00111040  RH  069%=      5-min Rain = 0
KLO1 200515Z 12005KT 01/M04 A3032 RMK A01 T00111040  RH  069%=      5-min Rain = 0
KLO1 200516Z 12005KT 01/M04 A3032 RMK A01 T00111040  RH  069%=      5-min Rain = 0
KLO1 200517Z 12005KT 01/M04 A3032 RMK A01 T00111040  RH  069%=      5-min Rain = 0
KLO1 200518Z 12005KT 01/M04 A3032 RMK A01 T00121038  RH  069%=      5-min Rain = 0
KLO1 200519Z 12005KT 01/M04 A3032 RMK A01 T00131037  RH  069%=      5-min Rain = 0
KLO1 200520Z 12005KT 01/M04 A3032 RMK A01 T00141036  RH  069%=      5-min Rain = 0
KLO1 200521Z 12005KT 01/M04 A3032 RMK A01 T00141036  RH  069%=      5-min Rain = 0
KLO1 200522Z 12005KT 01/M04 A3032 RMK A01 T00141037  RH  069%=      5-min Rain = 0
KLO1 200523Z 12004KT 01/M04 A3032 RMK A01 T00141037  RH  069%=      5-min Rain = 0
KLO1 200524Z 12004KT 01/M04 A3032 RMK A01 T00141037  RH  069%=      5-min Rain = 0
KLO1 200525Z 13004KT 01/M04 A3033 RMK A01 T00141037  RH  069%=      5-min Rain = 0
KLO1 200526Z 13003KT 01/M04 A3033 RMK A01 T00141038  RH  069%=      5-min Rain = 0
KLO1 200527Z 14003KT 01/M04 A3033 RMK A01 T00141038  RH  069%=      5-min Rain = 0
KLO1 200528Z 15003KT 01/M04 A3033 RMK A01 T00131039  RH  068%=      5-min Rain = 0
KLO1 200529Z 16003KT 01/M04 A3033 RMK A01 T00131039  RH  068%=      5-min Rain = 0
KLO1 200530Z 16003KT 01/M04 A3033 RMK A01 T00131039  RH  068%=      5-min Rain = 0
KLO1 200531Z 16003KT 01/M04 A3033 RMK A01 T00141039  RH  068%=      5-min Rain = 0
KLO1 200532Z 17003KT 01/M04 A3033 RMK A01 T00131039  RH  068%=      5-min Rain = 0
KLO1 200533Z 16003KT 01/M04 A3033 RMK A01 T00121041  RH  068%=      5-min Rain = 0
KLO1 200534Z 15003KT 01/M04 A3033 RMK A01 T00111041  RH  068%=      5-min Rain = 0
KLO1 200535Z 15003KT 01/M04 A3033 RMK A01 T00101042  RH  068%=      5-min Rain = 0
KLO1 200536Z 15003KT 01/M04 A3033 RMK A01 T00101042  RH  069%=      5-min Rain = 0
KLO1 200537Z 15003KT 01/M04 A3033 RMK A01 T00091042  RH  069%=      5-min Rain = 0
KLO1 200538Z 14003KT 01/M04 A3033 RMK A01 T00091042  RH  069%=      5-min Rain = 0
KLO1 200539Z 13003KT 01/M04 A3032 RMK A01 T00091042  RH  069%=      5-min Rain = 0
KLO1 200540Z 13003KT 01/M04 A3032 RMK A01 T00101042  RH  068%=      5-min Rain = 0
KLO1 200541Z 14003KT 01/M04 A3032 RMK A01 T00101042  RH  068%=      5-min Rain = 0
KLO1 200542Z 14003KT 01/M04 A3032 RMK A01 T00091042  RH  068%=      5-min Rain = 0
KLO1 200543Z 14003KT 01/M04 A3032 RMK A01 T00091043  RH  068%=      5-min Rain = 0
KLO1 200544Z 15004KT 01/M04 A3032 RMK A01 T00091044  RH  068%=      5-min Rain = 0
KLO1 200545Z 15004KT 01/M05 A3032 RMK A01 T00071045  RH  068%=      5-min Rain = 0
KLO1 200546Z 15004KT 01/M05 A3032 RMK A01 T00051047  RH  068%=      5-min Rain = 0
KLO1 200547Z 15003KT 00/M05 A3032 RMK A01 T00041047  RH  069%=      5-min Rain = 0
KLO1 200548Z 16003KT 00/M05 A3032 RMK A01 T00031046  RH  069%=      5-min Rain = 0
KLO1 200549Z 16003KT 00/M05 A3032 RMK A01 T00031046  RH  070%=      5-min Rain = 0
KLO1 200550Z 16003KT 00/M05 A3032 RMK A01 T00021046  RH  070%=      5-min Rain = 0
KLO1 200551Z 16003KT 00/M05 A3032 RMK A01 T00021046  RH  070%=      5-min Rain = 0
KLO1 200552Z 16003KT 00/M05 A3032 RMK A01 T00021046  RH  071%=      5-min Rain = 0
KLO1 200553Z 16003KT 00/M05 A3032 RMK A01 T00011046  RH  071%=      5-min Rain = 0
KLO1 200554Z 15003KT 00/05 A3032 RMK A01 T00000-46  RH  071%=      5-min Rain = 0
KLO1 200555Z 15003KT 00/05 A3032 RMK A01 T00-00-46  RH  071%=      5-min Rain = 0
KLO1 200556Z 14003KT M00/M05 A3032 RMK A01 T10011046  RH  071%=      5-min Rain = 0
KLO1 200557Z 14003KT M00/M05 A3032 RMK A01 T10011046  RH  072%=      5-min Rain = 0
KLO1 200558Z 13003KT M00/M05 A3032 RMK A01 T10011046  RH  072%=      5-min Rain = 0
KLO1 200559Z 13003KT M00/M05 A3032 RMK A01 T10011046  RH  072%=      5-min Rain = 0

Page generated in 0.1215 seconds.